<?xml version="1.0" encoding="UTF-8" standalone="no" ?>
<gpx xmlns="http://www.topografix.com/GPX/1/1" xmlns:xsi="http://www.w3.org/2001/XMLSchema-instance" xsi:schemaLocation="http://www.topografix.com/GPX/1/1 http://www.topografix.com/GPX/1/1/gpx.xsd" version="1.1" creator="VisuGPX - https://www.visugpx.com">
  <metadata>
    <name>La Gironie (Cañon de l'Alzou)</name>
    <desc><![CDATA[A completer]]></desc>
  </metadata>
  <wpt lat="44.79432" lon="1.5998">
    <ele>311</ele>
  </wpt>
  <wpt lat="44.7964" lon="1.60158">
    <ele>209</ele>
  </wpt>
  <wpt lat="44.79963" lon="1.60405">
    <ele>209</ele>
  </wpt>
  <wpt lat="44.80174" lon="1.60427">
    <ele>220</ele>
  </wpt>
  <wpt lat="44.80542" lon="1.60653">
    <ele>220</ele>
  </wpt>
  <trk>
    <name><![CDATA[La Gironie (Cañon de l'Alzou)_1]]></name>
    <trkseg>
      <trkpt lat="44.79432" lon="1.5998">
        <ele>311</ele>
        <time>2013-09-27T09:22:50Z</time>
      </trkpt>
      <trkpt lat="44.79443" lon="1.59972">
        <ele>311</ele>
        <time>2013-09-27T09:22:51Z</time>
      </trkpt>
      <trkpt lat="44.79456" lon="1.59969">
        <ele>311</ele>
        <time>2013-09-27T09:22:52Z</time>
      </trkpt>
      <trkpt lat="44.79467" lon="1.59968">
        <ele>311</ele>
        <time>2013-09-27T09:22:53Z</time>
      </trkpt>
      <trkpt lat="44.79473" lon="1.59956">
        <ele>311</ele>
        <time>2013-09-27T09:22:56Z</time>
      </trkpt>
      <trkpt lat="44.7945" lon="1.59973">
        <ele>311</ele>
        <time>2013-09-27T09:22:57Z</time>
      </trkpt>
      <trkpt lat="44.79464" lon="1.59968">
        <ele>311</ele>
        <time>2013-09-27T09:22:58Z</time>
      </trkpt>
      <trkpt lat="44.79478" lon="1.59957">
        <ele>311</ele>
        <time>2013-09-27T09:23:07Z</time>
      </trkpt>
      <trkpt lat="44.79508" lon="1.59942">
        <ele>311</ele>
        <time>2013-09-27T09:23:09Z</time>
      </trkpt>
      <trkpt lat="44.79489" lon="1.59957">
        <ele>311</ele>
        <time>2013-09-27T09:23:14Z</time>
      </trkpt>
      <trkpt lat="44.79499" lon="1.59933">
        <ele>311</ele>
        <time>2013-09-27T09:23:16Z</time>
      </trkpt>
      <trkpt lat="44.79493" lon="1.59945">
        <ele>311</ele>
        <time>2013-09-27T09:23:17Z</time>
      </trkpt>
      <trkpt lat="44.79482" lon="1.59928">
        <ele>311</ele>
        <time>2013-09-27T09:23:18Z</time>
      </trkpt>
      <trkpt lat="44.79443" lon="1.5995">
        <ele>311</ele>
        <time>2013-09-27T09:23:20Z</time>
      </trkpt>
      <trkpt lat="44.79418" lon="1.59943">
        <ele>311</ele>
        <time>2013-09-27T09:23:21Z</time>
      </trkpt>
      <trkpt lat="44.7946" lon="1.59936">
        <ele>311</ele>
        <time>2013-09-27T09:23:22Z</time>
      </trkpt>
      <trkpt lat="44.79508" lon="1.59924">
        <ele>311</ele>
        <time>2013-09-27T09:23:29Z</time>
      </trkpt>
      <trkpt lat="44.79518" lon="1.59915">
        <ele>311</ele>
        <time>2013-09-27T09:23:30Z</time>
      </trkpt>
      <trkpt lat="44.79494" lon="1.59909">
        <ele>311</ele>
        <time>2013-09-27T09:23:31Z</time>
      </trkpt>
      <trkpt lat="44.79515" lon="1.59922">
        <ele>311</ele>
        <time>2013-09-27T09:23:32Z</time>
      </trkpt>
      <trkpt lat="44.79557" lon="1.59899">
        <ele>311</ele>
        <time>2013-09-27T09:23:35Z</time>
      </trkpt>
      <trkpt lat="44.79544" lon="1.59905">
        <ele>311</ele>
        <time>2013-09-27T09:23:37Z</time>
      </trkpt>
      <trkpt lat="44.79529" lon="1.59926">
        <ele>311</ele>
        <time>2013-09-27T09:23:38Z</time>
      </trkpt>
      <trkpt lat="44.79525" lon="1.59914">
        <ele>311</ele>
        <time>2013-09-27T09:23:40Z</time>
      </trkpt>
      <trkpt lat="44.7951" lon="1.59933">
        <ele>311</ele>
        <time>2013-09-27T09:23:41Z</time>
      </trkpt>
      <trkpt lat="44.79528" lon="1.59921">
        <ele>311</ele>
        <time>2013-09-27T09:23:42Z</time>
      </trkpt>
      <trkpt lat="44.79518" lon="1.59927">
        <ele>311</ele>
        <time>2013-09-27T09:23:43Z</time>
      </trkpt>
      <trkpt lat="44.79533" lon="1.5991">
        <ele>311</ele>
        <time>2013-09-27T09:23:44Z</time>
      </trkpt>
      <trkpt lat="44.79497" lon="1.5992">
        <ele>311</ele>
        <time>2013-09-27T09:23:45Z</time>
      </trkpt>
      <trkpt lat="44.79526" lon="1.5992">
        <ele>311</ele>
        <time>2013-09-27T09:23:46Z</time>
      </trkpt>
      <trkpt lat="44.79538" lon="1.59912">
        <ele>311</ele>
        <time>2013-09-27T09:23:51Z</time>
      </trkpt>
      <trkpt lat="44.79549" lon="1.59904">
        <ele>311</ele>
        <time>2013-09-27T09:23:52Z</time>
      </trkpt>
      <trkpt lat="44.79533" lon="1.59917">
        <ele>311</ele>
        <time>2013-09-27T09:23:57Z</time>
      </trkpt>
      <trkpt lat="44.79545" lon="1.59913">
        <ele>311</ele>
        <time>2013-09-27T09:23:58Z</time>
      </trkpt>
      <trkpt lat="44.79564" lon="1.59904">
        <ele>311</ele>
        <time>2013-09-27T09:23:59Z</time>
      </trkpt>
      <trkpt lat="44.79561" lon="1.5989">
        <ele>311</ele>
        <time>2013-09-27T09:24:00Z</time>
      </trkpt>
      <trkpt lat="44.79541" lon="1.59911">
        <ele>311</ele>
        <time>2013-09-27T09:24:01Z</time>
      </trkpt>
      <trkpt lat="44.7953" lon="1.59923">
        <ele>311</ele>
        <time>2013-09-27T09:24:02Z</time>
      </trkpt>
      <trkpt lat="44.79514" lon="1.59931">
        <ele>311</ele>
        <time>2013-09-27T09:24:04Z</time>
      </trkpt>
      <trkpt lat="44.79534" lon="1.59915">
        <ele>311</ele>
        <time>2013-09-27T09:24:05Z</time>
      </trkpt>
      <trkpt lat="44.79554" lon="1.59897">
        <ele>311</ele>
        <time>2013-09-27T09:24:15Z</time>
      </trkpt>
      <trkpt lat="44.79538" lon="1.59906">
        <ele>311</ele>
        <time>2013-09-27T09:24:16Z</time>
      </trkpt>
      <trkpt lat="44.79528" lon="1.59906">
        <ele>311</ele>
        <time>2013-09-27T09:24:22Z</time>
      </trkpt>
      <trkpt lat="44.79538" lon="1.59895">
        <ele>311</ele>
        <time>2013-09-27T09:24:25Z</time>
      </trkpt>
      <trkpt lat="44.79547" lon="1.5989">
        <ele>311</ele>
        <time>2013-09-27T09:24:29Z</time>
      </trkpt>
      <trkpt lat="44.79546" lon="1.59877">
        <ele>311</ele>
        <time>2013-09-27T09:24:37Z</time>
      </trkpt>
      <trkpt lat="44.79567" lon="1.59874">
        <ele>311</ele>
        <time>2013-09-27T09:24:39Z</time>
      </trkpt>
      <trkpt lat="44.79586" lon="1.5987">
        <ele>311</ele>
        <time>2013-09-27T09:24:40Z</time>
      </trkpt>
      <trkpt lat="44.79572" lon="1.59871">
        <ele>311</ele>
        <time>2013-09-27T09:24:41Z</time>
      </trkpt>
      <trkpt lat="44.79557" lon="1.59871">
        <ele>311</ele>
        <time>2013-09-27T09:24:43Z</time>
      </trkpt>
      <trkpt lat="44.79574" lon="1.59867">
        <ele>311</ele>
        <time>2013-09-27T09:24:46Z</time>
      </trkpt>
      <trkpt lat="44.79564" lon="1.59864">
        <ele>311</ele>
        <time>2013-09-27T09:24:48Z</time>
      </trkpt>
      <trkpt lat="44.79521" lon="1.59878">
        <ele>311</ele>
        <time>2013-09-27T09:24:50Z</time>
      </trkpt>
      <trkpt lat="44.79563" lon="1.59865">
        <ele>311</ele>
        <time>2013-09-27T09:24:51Z</time>
      </trkpt>
      <trkpt lat="44.79551" lon="1.59858">
        <ele>311</ele>
        <time>2013-09-27T09:24:52Z</time>
      </trkpt>
      <trkpt lat="44.79579" lon="1.59854">
        <ele>311</ele>
        <time>2013-09-27T09:24:53Z</time>
      </trkpt>
      <trkpt lat="44.79547" lon="1.59859">
        <ele>311</ele>
        <time>2013-09-27T09:24:54Z</time>
      </trkpt>
      <trkpt lat="44.79563" lon="1.59853">
        <ele>311</ele>
        <time>2013-09-27T09:24:57Z</time>
      </trkpt>
      <trkpt lat="44.7958" lon="1.59846">
        <ele>311</ele>
        <time>2013-09-27T09:24:59Z</time>
      </trkpt>
      <trkpt lat="44.79563" lon="1.59846">
        <ele>311</ele>
        <time>2013-09-27T09:25:00Z</time>
      </trkpt>
      <trkpt lat="44.79591" lon="1.59842">
        <ele>311</ele>
        <time>2013-09-27T09:25:01Z</time>
      </trkpt>
      <trkpt lat="44.79558" lon="1.59844">
        <ele>311</ele>
        <time>2013-09-27T09:25:03Z</time>
      </trkpt>
      <trkpt lat="44.79577" lon="1.59832">
        <ele>311</ele>
        <time>2013-09-27T09:25:06Z</time>
      </trkpt>
      <trkpt lat="44.79563" lon="1.59832">
        <ele>311</ele>
        <time>2013-09-27T09:25:07Z</time>
      </trkpt>
      <trkpt lat="44.79581" lon="1.59834">
        <ele>311</ele>
        <time>2013-09-27T09:25:08Z</time>
      </trkpt>
      <trkpt lat="44.79565" lon="1.5984">
        <ele>311</ele>
        <time>2013-09-27T09:25:10Z</time>
      </trkpt>
      <trkpt lat="44.7957" lon="1.59827">
        <ele>311</ele>
        <time>2013-09-27T09:25:16Z</time>
      </trkpt>
      <trkpt lat="44.79575" lon="1.59814">
        <ele>311</ele>
        <time>2013-09-27T09:25:23Z</time>
      </trkpt>
      <trkpt lat="44.79565" lon="1.59812">
        <ele>311</ele>
        <time>2013-09-27T09:25:29Z</time>
      </trkpt>
      <trkpt lat="44.79574" lon="1.598">
        <ele>311</ele>
        <time>2013-09-27T09:25:32Z</time>
      </trkpt>
      <trkpt lat="44.79569" lon="1.59786">
        <ele>311</ele>
        <time>2013-09-27T09:25:41Z</time>
      </trkpt>
      <trkpt lat="44.79576" lon="1.59774">
        <ele>311</ele>
        <time>2013-09-27T09:25:49Z</time>
      </trkpt>
      <trkpt lat="44.79561" lon="1.59782">
        <ele>311</ele>
        <time>2013-09-27T09:25:50Z</time>
      </trkpt>
      <trkpt lat="44.79546" lon="1.59782">
        <ele>311</ele>
        <time>2013-09-27T09:25:51Z</time>
      </trkpt>
      <trkpt lat="44.79561" lon="1.59773">
        <ele>311</ele>
        <time>2013-09-27T09:25:52Z</time>
      </trkpt>
      <trkpt lat="44.79577" lon="1.59765">
        <ele>311</ele>
        <time>2013-09-27T09:25:57Z</time>
      </trkpt>
      <trkpt lat="44.79588" lon="1.59762">
        <ele>311</ele>
        <time>2013-09-27T09:25:58Z</time>
      </trkpt>
      <trkpt lat="44.79568" lon="1.59752">
        <ele>311</ele>
        <time>2013-09-27T09:26:00Z</time>
      </trkpt>
      <trkpt lat="44.79579" lon="1.59752">
        <ele>311</ele>
        <time>2013-09-27T09:26:02Z</time>
      </trkpt>
      <trkpt lat="44.79566" lon="1.59751">
        <ele>311</ele>
        <time>2013-09-27T09:26:04Z</time>
      </trkpt>
      <trkpt lat="44.79555" lon="1.59752">
        <ele>311</ele>
        <time>2013-09-27T09:26:08Z</time>
      </trkpt>
      <trkpt lat="44.79574" lon="1.59751">
        <ele>311</ele>
        <time>2013-09-27T09:26:09Z</time>
      </trkpt>
      <trkpt lat="44.79556" lon="1.5975">
        <ele>311</ele>
        <time>2013-09-27T09:26:10Z</time>
      </trkpt>
      <trkpt lat="44.79554" lon="1.59736">
        <ele>311</ele>
        <time>2013-09-27T09:26:20Z</time>
      </trkpt>
      <trkpt lat="44.79545" lon="1.59734">
        <ele>311</ele>
        <time>2013-09-27T09:26:25Z</time>
      </trkpt>
      <trkpt lat="44.79536" lon="1.59729">
        <ele>311</ele>
        <time>2013-09-27T09:26:29Z</time>
      </trkpt>
      <trkpt lat="44.79545" lon="1.59725">
        <ele>311</ele>
        <time>2013-09-27T09:26:31Z</time>
      </trkpt>
      <trkpt lat="44.79534" lon="1.59724">
        <ele>311</ele>
        <time>2013-09-27T09:26:32Z</time>
      </trkpt>
      <trkpt lat="44.7953" lon="1.59712">
        <ele>311</ele>
        <time>2013-09-27T09:26:43Z</time>
      </trkpt>
      <trkpt lat="44.79521" lon="1.59707">
        <ele>311</ele>
        <time>2013-09-27T09:26:47Z</time>
      </trkpt>
      <trkpt lat="44.79512" lon="1.59703">
        <ele>311</ele>
        <time>2013-09-27T09:26:53Z</time>
      </trkpt>
      <trkpt lat="44.79512" lon="1.59689">
        <ele>311</ele>
        <time>2013-09-27T09:27:06Z</time>
      </trkpt>
      <trkpt lat="44.79505" lon="1.59679">
        <ele>311</ele>
        <time>2013-09-27T09:27:15Z</time>
      </trkpt>
      <trkpt lat="44.79498" lon="1.5967">
        <ele>311</ele>
        <time>2013-09-27T09:27:24Z</time>
      </trkpt>
      <trkpt lat="44.79489" lon="1.59663">
        <ele>311</ele>
        <time>2013-09-27T09:27:33Z</time>
      </trkpt>
      <trkpt lat="44.7948" lon="1.59649">
        <ele>311</ele>
        <time>2013-09-27T09:27:42Z</time>
      </trkpt>
      <trkpt lat="44.79469" lon="1.59651">
        <ele>311</ele>
        <time>2013-09-27T09:27:51Z</time>
      </trkpt>
      <trkpt lat="44.7946" lon="1.59643">
        <ele>311</ele>
        <time>2013-09-27T09:28:00Z</time>
      </trkpt>
      <trkpt lat="44.79458" lon="1.59658">
        <ele>311</ele>
        <time>2013-09-27T09:28:48Z</time>
      </trkpt>
      <trkpt lat="44.79458" lon="1.59644">
        <ele>311</ele>
        <time>2013-09-27T09:29:38Z</time>
      </trkpt>
      <trkpt lat="44.79467" lon="1.59649">
        <ele>311</ele>
        <time>2013-09-27T09:31:25Z</time>
      </trkpt>
      <trkpt lat="44.79475" lon="1.59641">
        <ele>311</ele>
        <time>2013-09-27T09:32:09Z</time>
      </trkpt>
      <trkpt lat="44.79466" lon="1.59644">
        <ele>311</ele>
        <time>2013-09-27T09:32:18Z</time>
      </trkpt>
      <trkpt lat="44.79455" lon="1.59642">
        <ele>311</ele>
        <time>2013-09-27T09:32:24Z</time>
      </trkpt>
      <trkpt lat="44.79447" lon="1.59634">
        <ele>311</ele>
        <time>2013-09-27T09:32:36Z</time>
      </trkpt>
      <trkpt lat="44.79437" lon="1.5963">
        <ele>311</ele>
        <time>2013-09-27T09:32:42Z</time>
      </trkpt>
      <trkpt lat="44.79428" lon="1.59625">
        <ele>306</ele>
        <time>2013-09-27T09:32:51Z</time>
      </trkpt>
      <trkpt lat="44.79418" lon="1.59621">
        <ele>306</ele>
        <time>2013-09-27T09:33:00Z</time>
      </trkpt>
      <trkpt lat="44.79409" lon="1.59626">
        <ele>306</ele>
        <time>2013-09-27T09:33:11Z</time>
      </trkpt>
      <trkpt lat="44.794" lon="1.59634">
        <ele>306</ele>
        <time>2013-09-27T09:33:24Z</time>
      </trkpt>
      <trkpt lat="44.79392" lon="1.59641">
        <ele>306</ele>
        <time>2013-09-27T09:33:32Z</time>
      </trkpt>
      <trkpt lat="44.79385" lon="1.5965">
        <ele>306</ele>
        <time>2013-09-27T09:33:40Z</time>
      </trkpt>
      <trkpt lat="44.79376" lon="1.59659">
        <ele>306</ele>
        <time>2013-09-27T09:33:49Z</time>
      </trkpt>
      <trkpt lat="44.79366" lon="1.5966">
        <ele>306</ele>
        <time>2013-09-27T09:33:59Z</time>
      </trkpt>
      <trkpt lat="44.79357" lon="1.59657">
        <ele>306</ele>
        <time>2013-09-27T09:34:08Z</time>
      </trkpt>
      <trkpt lat="44.79348" lon="1.59652">
        <ele>306</ele>
        <time>2013-09-27T09:34:18Z</time>
      </trkpt>
      <trkpt lat="44.79339" lon="1.59646">
        <ele>306</ele>
        <time>2013-09-27T09:34:29Z</time>
      </trkpt>
      <trkpt lat="44.79332" lon="1.59636">
        <ele>300</ele>
        <time>2013-09-27T09:34:44Z</time>
      </trkpt>
      <trkpt lat="44.79324" lon="1.5963">
        <ele>300</ele>
        <time>2013-09-27T09:34:51Z</time>
      </trkpt>
      <trkpt lat="44.79316" lon="1.59618">
        <ele>300</ele>
        <time>2013-09-27T09:35:01Z</time>
      </trkpt>
      <trkpt lat="44.79309" lon="1.59609">
        <ele>300</ele>
        <time>2013-09-27T09:35:15Z</time>
      </trkpt>
      <trkpt lat="44.793" lon="1.59603">
        <ele>300</ele>
        <time>2013-09-27T09:35:27Z</time>
      </trkpt>
      <trkpt lat="44.79292" lon="1.59597">
        <ele>300</ele>
        <time>2013-09-27T09:35:34Z</time>
      </trkpt>
      <trkpt lat="44.79286" lon="1.59585">
        <ele>300</ele>
        <time>2013-09-27T09:35:46Z</time>
      </trkpt>
      <trkpt lat="44.79283" lon="1.59572">
        <ele>300</ele>
        <time>2013-09-27T09:35:56Z</time>
      </trkpt>
      <trkpt lat="44.79276" lon="1.59562">
        <ele>293</ele>
        <time>2013-09-27T09:36:05Z</time>
      </trkpt>
      <trkpt lat="44.79275" lon="1.59547">
        <ele>293</ele>
        <time>2013-09-27T09:36:13Z</time>
      </trkpt>
      <trkpt lat="44.79274" lon="1.59534">
        <ele>293</ele>
        <time>2013-09-27T09:36:18Z</time>
      </trkpt>
      <trkpt lat="44.7928" lon="1.59519">
        <ele>293</ele>
        <time>2013-09-27T09:36:23Z</time>
      </trkpt>
      <trkpt lat="44.79285" lon="1.59508">
        <ele>293</ele>
        <time>2013-09-27T09:36:28Z</time>
      </trkpt>
      <trkpt lat="44.79274" lon="1.59508">
        <ele>293</ele>
        <time>2013-09-27T09:36:36Z</time>
      </trkpt>
      <trkpt lat="44.79265" lon="1.59504">
        <ele>293</ele>
        <time>2013-09-27T09:36:44Z</time>
      </trkpt>
      <trkpt lat="44.79257" lon="1.59498">
        <ele>293</ele>
        <time>2013-09-27T09:36:50Z</time>
      </trkpt>
      <trkpt lat="44.79258" lon="1.59484">
        <ele>286</ele>
        <time>2013-09-27T09:36:59Z</time>
      </trkpt>
      <trkpt lat="44.79253" lon="1.59473">
        <ele>286</ele>
        <time>2013-09-27T09:37:13Z</time>
      </trkpt>
      <trkpt lat="44.79247" lon="1.59459">
        <ele>280</ele>
        <time>2013-09-27T09:37:26Z</time>
      </trkpt>
      <trkpt lat="44.79242" lon="1.59447">
        <ele>280</ele>
        <time>2013-09-27T09:37:32Z</time>
      </trkpt>
      <trkpt lat="44.79234" lon="1.59436">
        <ele>280</ele>
        <time>2013-09-27T09:37:46Z</time>
      </trkpt>
      <trkpt lat="44.7923" lon="1.59422">
        <ele>286</ele>
        <time>2013-09-27T09:37:54Z</time>
      </trkpt>
      <trkpt lat="44.79228" lon="1.59409">
        <ele>286</ele>
        <time>2013-09-27T09:38:05Z</time>
      </trkpt>
      <trkpt lat="44.79223" lon="1.59395">
        <ele>293</ele>
        <time>2013-09-27T09:38:15Z</time>
      </trkpt>
      <trkpt lat="44.79225" lon="1.59382">
        <ele>293</ele>
        <time>2013-09-27T09:38:20Z</time>
      </trkpt>
      <trkpt lat="44.79226" lon="1.59368">
        <ele>293</ele>
        <time>2013-09-27T09:38:33Z</time>
      </trkpt>
      <trkpt lat="44.79225" lon="1.59355">
        <ele>293</ele>
        <time>2013-09-27T09:38:43Z</time>
      </trkpt>
      <trkpt lat="44.79225" lon="1.59341">
        <ele>293</ele>
        <time>2013-09-27T09:38:51Z</time>
      </trkpt>
      <trkpt lat="44.79226" lon="1.59328">
        <ele>293</ele>
        <time>2013-09-27T09:39:00Z</time>
      </trkpt>
      <trkpt lat="44.79228" lon="1.59314">
        <ele>293</ele>
        <time>2013-09-27T09:39:09Z</time>
      </trkpt>
      <trkpt lat="44.7923" lon="1.59302">
        <ele>288</ele>
        <time>2013-09-27T09:39:17Z</time>
      </trkpt>
      <trkpt lat="44.79233" lon="1.59288">
        <ele>288</ele>
        <time>2013-09-27T09:39:25Z</time>
      </trkpt>
      <trkpt lat="44.79235" lon="1.59273">
        <ele>288</ele>
        <time>2013-09-27T09:39:34Z</time>
      </trkpt>
      <trkpt lat="44.79238" lon="1.5926">
        <ele>280</ele>
        <time>2013-09-27T09:39:43Z</time>
      </trkpt>
      <trkpt lat="44.79243" lon="1.59248">
        <ele>280</ele>
        <time>2013-09-27T09:39:55Z</time>
      </trkpt>
      <trkpt lat="44.79246" lon="1.59235">
        <ele>280</ele>
        <time>2013-09-27T09:40:02Z</time>
      </trkpt>
      <trkpt lat="44.79249" lon="1.59223">
        <ele>280</ele>
        <time>2013-09-27T09:40:11Z</time>
      </trkpt>
      <trkpt lat="44.79253" lon="1.5921">
        <ele>280</ele>
        <time>2013-09-27T09:40:22Z</time>
      </trkpt>
      <trkpt lat="44.79256" lon="1.59197">
        <ele>280</ele>
        <time>2013-09-27T09:40:31Z</time>
      </trkpt>
      <trkpt lat="44.79256" lon="1.59183">
        <ele>280</ele>
        <time>2013-09-27T09:40:55Z</time>
      </trkpt>
      <trkpt lat="44.79265" lon="1.59176">
        <ele>258</ele>
        <time>2013-09-27T09:42:03Z</time>
      </trkpt>
      <trkpt lat="44.79273" lon="1.59158">
        <ele>211</ele>
        <time>2013-09-27T09:42:25Z</time>
      </trkpt>
      <trkpt lat="44.79279" lon="1.59148">
        <ele>179</ele>
        <time>2013-09-27T09:42:35Z</time>
      </trkpt>
      <trkpt lat="44.79281" lon="1.59135">
        <ele>172</ele>
        <time>2013-09-27T09:46:35Z</time>
      </trkpt>
      <trkpt lat="44.79277" lon="1.59121">
        <ele>172</ele>
        <time>2013-09-27T09:46:45Z</time>
      </trkpt>
      <trkpt lat="44.79275" lon="1.59108">
        <ele>172</ele>
        <time>2013-09-27T09:46:55Z</time>
      </trkpt>
      <trkpt lat="44.79274" lon="1.59094">
        <ele>172</ele>
        <time>2013-09-27T09:47:07Z</time>
      </trkpt>
      <trkpt lat="44.79277" lon="1.59082">
        <ele>172</ele>
        <time>2013-09-27T09:47:15Z</time>
      </trkpt>
      <trkpt lat="44.79277" lon="1.59068">
        <ele>172</ele>
        <time>2013-09-27T09:47:24Z</time>
      </trkpt>
      <trkpt lat="44.79279" lon="1.59054">
        <ele>172</ele>
        <time>2013-09-27T09:47:32Z</time>
      </trkpt>
      <trkpt lat="44.79278" lon="1.5904">
        <ele>167</ele>
        <time>2013-09-27T09:47:41Z</time>
      </trkpt>
      <trkpt lat="44.79279" lon="1.59026">
        <ele>167</ele>
        <time>2013-09-27T09:47:50Z</time>
      </trkpt>
      <trkpt lat="44.79279" lon="1.59013">
        <ele>167</ele>
        <time>2013-09-27T09:47:58Z</time>
      </trkpt>
      <trkpt lat="44.79279" lon="1.58998">
        <ele>167</ele>
        <time>2013-09-27T09:48:07Z</time>
      </trkpt>
      <trkpt lat="44.79278" lon="1.58984">
        <ele>167</ele>
        <time>2013-09-27T09:48:16Z</time>
      </trkpt>
      <trkpt lat="44.79276" lon="1.5897">
        <ele>167</ele>
        <time>2013-09-27T09:48:25Z</time>
      </trkpt>
      <trkpt lat="44.79274" lon="1.58956">
        <ele>161</ele>
        <time>2013-09-27T09:48:33Z</time>
      </trkpt>
      <trkpt lat="44.79274" lon="1.58943">
        <ele>161</ele>
        <time>2013-09-27T09:48:41Z</time>
      </trkpt>
      <trkpt lat="44.79272" lon="1.58929">
        <ele>161</ele>
        <time>2013-09-27T09:48:49Z</time>
      </trkpt>
      <trkpt lat="44.79273" lon="1.58916">
        <ele>161</ele>
        <time>2013-09-27T09:48:56Z</time>
      </trkpt>
      <trkpt lat="44.79272" lon="1.58902">
        <ele>161</ele>
        <time>2013-09-27T09:49:04Z</time>
      </trkpt>
      <trkpt lat="44.79272" lon="1.58889">
        <ele>161</ele>
        <time>2013-09-27T09:49:12Z</time>
      </trkpt>
      <trkpt lat="44.79272" lon="1.58875">
        <ele>161</ele>
        <time>2013-09-27T09:49:19Z</time>
      </trkpt>
      <trkpt lat="44.79272" lon="1.58862">
        <ele>161</ele>
        <time>2013-09-27T09:49:27Z</time>
      </trkpt>
      <trkpt lat="44.7927" lon="1.58848">
        <ele>161</ele>
        <time>2013-09-27T09:49:36Z</time>
      </trkpt>
      <trkpt lat="44.79269" lon="1.58834">
        <ele>155</ele>
        <time>2013-09-27T09:49:44Z</time>
      </trkpt>
      <trkpt lat="44.79267" lon="1.58819">
        <ele>155</ele>
        <time>2013-09-27T09:49:52Z</time>
      </trkpt>
      <trkpt lat="44.79265" lon="1.58806">
        <ele>155</ele>
        <time>2013-09-27T09:50:01Z</time>
      </trkpt>
      <trkpt lat="44.79263" lon="1.58792">
        <ele>155</ele>
        <time>2013-09-27T09:50:10Z</time>
      </trkpt>
      <trkpt lat="44.79261" lon="1.58777">
        <ele>149</ele>
        <time>2013-09-27T09:50:19Z</time>
      </trkpt>
      <trkpt lat="44.7926" lon="1.58764">
        <ele>149</ele>
        <time>2013-09-27T09:50:27Z</time>
      </trkpt>
      <trkpt lat="44.79258" lon="1.5875">
        <ele>149</ele>
        <time>2013-09-27T09:50:35Z</time>
      </trkpt>
      <trkpt lat="44.79257" lon="1.58735">
        <ele>149</ele>
        <time>2013-09-27T09:50:43Z</time>
      </trkpt>
      <trkpt lat="44.79254" lon="1.58722">
        <ele>149</ele>
        <time>2013-09-27T09:50:51Z</time>
      </trkpt>
      <trkpt lat="44.79253" lon="1.58708">
        <ele>149</ele>
        <time>2013-09-27T09:50:59Z</time>
      </trkpt>
      <trkpt lat="44.7925" lon="1.58695">
        <ele>149</ele>
        <time>2013-09-27T09:51:08Z</time>
      </trkpt>
      <trkpt lat="44.79246" lon="1.58681">
        <ele>149</ele>
        <time>2013-09-27T09:51:16Z</time>
      </trkpt>
      <trkpt lat="44.79244" lon="1.58668">
        <ele>149</ele>
        <time>2013-09-27T09:51:25Z</time>
      </trkpt>
      <trkpt lat="44.79243" lon="1.58654">
        <ele>149</ele>
        <time>2013-09-27T09:51:33Z</time>
      </trkpt>
      <trkpt lat="44.7924" lon="1.58642">
        <ele>149</ele>
        <time>2013-09-27T09:51:41Z</time>
      </trkpt>
      <trkpt lat="44.79237" lon="1.58629">
        <ele>149</ele>
        <time>2013-09-27T09:51:49Z</time>
      </trkpt>
      <trkpt lat="44.79235" lon="1.58616">
        <ele>149</ele>
        <time>2013-09-27T09:51:56Z</time>
      </trkpt>
      <trkpt lat="44.79229" lon="1.58605">
        <ele>149</ele>
        <time>2013-09-27T09:52:04Z</time>
      </trkpt>
      <trkpt lat="44.79226" lon="1.58592">
        <ele>149</ele>
        <time>2013-09-27T09:52:12Z</time>
      </trkpt>
      <trkpt lat="44.79221" lon="1.5858">
        <ele>149</ele>
        <time>2013-09-27T09:52:21Z</time>
      </trkpt>
      <trkpt lat="44.79217" lon="1.58566">
        <ele>149</ele>
        <time>2013-09-27T09:52:30Z</time>
      </trkpt>
      <trkpt lat="44.79212" lon="1.58553">
        <ele>149</ele>
        <time>2013-09-27T09:52:40Z</time>
      </trkpt>
      <trkpt lat="44.79205" lon="1.58545">
        <ele>149</ele>
        <time>2013-09-27T09:52:47Z</time>
      </trkpt>
      <trkpt lat="44.79198" lon="1.58534">
        <ele>149</ele>
        <time>2013-09-27T09:52:55Z</time>
      </trkpt>
      <trkpt lat="44.79194" lon="1.5852">
        <ele>149</ele>
        <time>2013-09-27T09:53:03Z</time>
      </trkpt>
      <trkpt lat="44.79191" lon="1.58507">
        <ele>149</ele>
        <time>2013-09-27T09:53:11Z</time>
      </trkpt>
      <trkpt lat="44.79189" lon="1.58493">
        <ele>149</ele>
        <time>2013-09-27T09:53:19Z</time>
      </trkpt>
      <trkpt lat="44.79185" lon="1.5848">
        <ele>142</ele>
        <time>2013-09-27T09:53:27Z</time>
      </trkpt>
      <trkpt lat="44.79182" lon="1.58466">
        <ele>142</ele>
        <time>2013-09-27T09:53:35Z</time>
      </trkpt>
      <trkpt lat="44.79177" lon="1.58455">
        <ele>142</ele>
        <time>2013-09-27T09:53:43Z</time>
      </trkpt>
      <trkpt lat="44.79174" lon="1.58442">
        <ele>142</ele>
        <time>2013-09-27T09:53:50Z</time>
      </trkpt>
      <trkpt lat="44.79171" lon="1.58429">
        <ele>142</ele>
        <time>2013-09-27T09:53:58Z</time>
      </trkpt>
      <trkpt lat="44.79169" lon="1.58414">
        <ele>137</ele>
        <time>2013-09-27T09:54:06Z</time>
      </trkpt>
      <trkpt lat="44.79168" lon="1.58401">
        <ele>137</ele>
        <time>2013-09-27T09:54:14Z</time>
      </trkpt>
      <trkpt lat="44.79166" lon="1.58387">
        <ele>137</ele>
        <time>2013-09-27T09:54:22Z</time>
      </trkpt>
      <trkpt lat="44.79164" lon="1.58373">
        <ele>137</ele>
        <time>2013-09-27T09:54:30Z</time>
      </trkpt>
      <trkpt lat="44.79164" lon="1.58359">
        <ele>137</ele>
        <time>2013-09-27T09:54:38Z</time>
      </trkpt>
      <trkpt lat="44.79164" lon="1.58345">
        <ele>137</ele>
        <time>2013-09-27T09:54:46Z</time>
      </trkpt>
      <trkpt lat="44.79166" lon="1.58331">
        <ele>137</ele>
        <time>2013-09-27T09:54:55Z</time>
      </trkpt>
      <trkpt lat="44.79169" lon="1.58317">
        <ele>137</ele>
        <time>2013-09-27T09:55:02Z</time>
      </trkpt>
      <trkpt lat="44.79174" lon="1.58305">
        <ele>137</ele>
        <time>2013-09-27T09:55:12Z</time>
      </trkpt>
      <trkpt lat="44.79179" lon="1.58291">
        <ele>137</ele>
        <time>2013-09-27T09:55:22Z</time>
      </trkpt>
      <trkpt lat="44.79185" lon="1.5828">
        <ele>137</ele>
        <time>2013-09-27T09:55:30Z</time>
      </trkpt>
      <trkpt lat="44.79189" lon="1.58267">
        <ele>137</ele>
        <time>2013-09-27T09:55:39Z</time>
      </trkpt>
      <trkpt lat="44.79187" lon="1.58254">
        <ele>137</ele>
        <time>2013-09-27T09:55:48Z</time>
      </trkpt>
      <trkpt lat="44.7918" lon="1.58243">
        <ele>149</ele>
        <time>2013-09-27T09:55:57Z</time>
      </trkpt>
      <trkpt lat="44.79171" lon="1.58237">
        <ele>149</ele>
        <time>2013-09-27T09:56:07Z</time>
      </trkpt>
      <trkpt lat="44.79163" lon="1.58228">
        <ele>140</ele>
        <time>2013-09-27T09:56:16Z</time>
      </trkpt>
      <trkpt lat="44.79157" lon="1.58218">
        <ele>140</ele>
        <time>2013-09-27T09:56:25Z</time>
      </trkpt>
      <trkpt lat="44.79156" lon="1.58204">
        <ele>140</ele>
        <time>2013-09-27T09:56:33Z</time>
      </trkpt>
      <trkpt lat="44.79153" lon="1.58192">
        <ele>140</ele>
        <time>2013-09-27T09:56:44Z</time>
      </trkpt>
      <trkpt lat="44.79155" lon="1.58179">
        <ele>140</ele>
        <time>2013-09-27T09:56:54Z</time>
      </trkpt>
      <trkpt lat="44.7915" lon="1.58166">
        <ele>140</ele>
        <time>2013-09-27T09:57:03Z</time>
      </trkpt>
      <trkpt lat="44.79146" lon="1.58153">
        <ele>140</ele>
        <time>2013-09-27T09:57:12Z</time>
      </trkpt>
      <trkpt lat="44.79141" lon="1.58139">
        <ele>135</ele>
        <time>2013-09-27T09:57:21Z</time>
      </trkpt>
      <trkpt lat="44.79139" lon="1.58125">
        <ele>135</ele>
        <time>2013-09-27T09:57:29Z</time>
      </trkpt>
      <trkpt lat="44.79138" lon="1.58112">
        <ele>135</ele>
        <time>2013-09-27T09:57:37Z</time>
      </trkpt>
      <trkpt lat="44.79138" lon="1.58098">
        <ele>135</ele>
        <time>2013-09-27T09:57:45Z</time>
      </trkpt>
      <trkpt lat="44.79136" lon="1.58084">
        <ele>135</ele>
        <time>2013-09-27T09:57:54Z</time>
      </trkpt>
      <trkpt lat="44.79136" lon="1.5807">
        <ele>135</ele>
        <time>2013-09-27T09:58:02Z</time>
      </trkpt>
      <trkpt lat="44.79138" lon="1.58056">
        <ele>135</ele>
        <time>2013-09-27T09:58:10Z</time>
      </trkpt>
      <trkpt lat="44.79137" lon="1.58042">
        <ele>140</ele>
        <time>2013-09-27T09:58:19Z</time>
      </trkpt>
      <trkpt lat="44.79136" lon="1.58029">
        <ele>140</ele>
        <time>2013-09-27T09:58:27Z</time>
      </trkpt>
      <trkpt lat="44.79135" lon="1.58015">
        <ele>140</ele>
        <time>2013-09-27T09:58:35Z</time>
      </trkpt>
      <trkpt lat="44.79134" lon="1.58">
        <ele>134</ele>
        <time>2013-09-27T09:58:43Z</time>
      </trkpt>
      <trkpt lat="44.79133" lon="1.57986">
        <ele>134</ele>
        <time>2013-09-27T09:58:52Z</time>
      </trkpt>
      <trkpt lat="44.79132" lon="1.57972">
        <ele>134</ele>
        <time>2013-09-27T09:59:00Z</time>
      </trkpt>
      <trkpt lat="44.79129" lon="1.5796">
        <ele>134</ele>
        <time>2013-09-27T09:59:07Z</time>
      </trkpt>
      <trkpt lat="44.79128" lon="1.57946">
        <ele>134</ele>
        <time>2013-09-27T09:59:15Z</time>
      </trkpt>
      <trkpt lat="44.79126" lon="1.57933">
        <ele>134</ele>
        <time>2013-09-27T09:59:22Z</time>
      </trkpt>
      <trkpt lat="44.79126" lon="1.57919">
        <ele>134</ele>
        <time>2013-09-27T09:59:30Z</time>
      </trkpt>
      <trkpt lat="44.79127" lon="1.57905">
        <ele>134</ele>
        <time>2013-09-27T09:59:38Z</time>
      </trkpt>
      <trkpt lat="44.79126" lon="1.57892">
        <ele>134</ele>
        <time>2013-09-27T09:59:47Z</time>
      </trkpt>
      <trkpt lat="44.79127" lon="1.57878">
        <ele>134</ele>
        <time>2013-09-27T09:59:55Z</time>
      </trkpt>
      <trkpt lat="44.79128" lon="1.57863">
        <ele>139</ele>
        <time>2013-09-27T10:00:04Z</time>
      </trkpt>
      <trkpt lat="44.7913" lon="1.57849">
        <ele>139</ele>
        <time>2013-09-27T10:00:11Z</time>
      </trkpt>
      <trkpt lat="44.79133" lon="1.57836">
        <ele>139</ele>
        <time>2013-09-27T10:00:20Z</time>
      </trkpt>
      <trkpt lat="44.79139" lon="1.57824">
        <ele>139</ele>
        <time>2013-09-27T10:00:28Z</time>
      </trkpt>
      <trkpt lat="44.79143" lon="1.57812">
        <ele>147</ele>
        <time>2013-09-27T10:00:39Z</time>
      </trkpt>
      <trkpt lat="44.7915" lon="1.578">
        <ele>154</ele>
        <time>2013-09-27T10:00:47Z</time>
      </trkpt>
      <trkpt lat="44.79154" lon="1.57788">
        <ele>154</ele>
        <time>2013-09-27T10:00:55Z</time>
      </trkpt>
      <trkpt lat="44.79158" lon="1.57777">
        <ele>145</ele>
        <time>2013-09-27T10:01:54Z</time>
      </trkpt>
      <trkpt lat="44.79162" lon="1.57764">
        <ele>145</ele>
        <time>2013-09-27T10:04:14Z</time>
      </trkpt>
      <trkpt lat="44.79164" lon="1.57751">
        <ele>145</ele>
        <time>2013-09-27T10:04:23Z</time>
      </trkpt>
      <trkpt lat="44.79166" lon="1.57736">
        <ele>145</ele>
        <time>2013-09-27T10:04:37Z</time>
      </trkpt>
      <trkpt lat="44.79169" lon="1.57723">
        <ele>140</ele>
        <time>2013-09-27T10:04:48Z</time>
      </trkpt>
      <trkpt lat="44.79173" lon="1.57708">
        <ele>147</ele>
        <time>2013-09-27T10:04:55Z</time>
      </trkpt>
      <trkpt lat="44.79176" lon="1.57696">
        <ele>147</ele>
        <time>2013-09-27T10:05:04Z</time>
      </trkpt>
      <trkpt lat="44.79179" lon="1.57683">
        <ele>147</ele>
        <time>2013-09-27T10:05:12Z</time>
      </trkpt>
      <trkpt lat="44.79182" lon="1.57671">
        <ele>147</ele>
        <time>2013-09-27T10:05:20Z</time>
      </trkpt>
      <trkpt lat="44.79185" lon="1.57657">
        <ele>147</ele>
        <time>2013-09-27T10:05:28Z</time>
      </trkpt>
      <trkpt lat="44.79189" lon="1.57644">
        <ele>147</ele>
        <time>2013-09-27T10:05:36Z</time>
      </trkpt>
      <trkpt lat="44.79194" lon="1.57631">
        <ele>147</ele>
        <time>2013-09-27T10:05:44Z</time>
      </trkpt>
      <trkpt lat="44.79198" lon="1.57618">
        <ele>142</ele>
        <time>2013-09-27T10:05:51Z</time>
      </trkpt>
      <trkpt lat="44.79203" lon="1.57607">
        <ele>142</ele>
        <time>2013-09-27T10:05:59Z</time>
      </trkpt>
      <trkpt lat="44.79209" lon="1.57596">
        <ele>142</ele>
        <time>2013-09-27T10:06:07Z</time>
      </trkpt>
      <trkpt lat="44.79215" lon="1.57586">
        <ele>142</ele>
        <time>2013-09-27T10:06:15Z</time>
      </trkpt>
      <trkpt lat="44.79223" lon="1.57576">
        <ele>142</ele>
        <time>2013-09-27T10:06:23Z</time>
      </trkpt>
      <trkpt lat="44.79229" lon="1.57566">
        <ele>142</ele>
        <time>2013-09-27T10:06:33Z</time>
      </trkpt>
      <trkpt lat="44.79237" lon="1.57556">
        <ele>142</ele>
        <time>2013-09-27T10:06:41Z</time>
      </trkpt>
      <trkpt lat="44.79242" lon="1.57545">
        <ele>142</ele>
        <time>2013-09-27T10:06:50Z</time>
      </trkpt>
      <trkpt lat="44.79249" lon="1.57535">
        <ele>142</ele>
        <time>2013-09-27T10:06:59Z</time>
      </trkpt>
      <trkpt lat="44.79255" lon="1.57524">
        <ele>142</ele>
        <time>2013-09-27T10:07:07Z</time>
      </trkpt>
      <trkpt lat="44.79261" lon="1.57513">
        <ele>142</ele>
        <time>2013-09-27T10:07:21Z</time>
      </trkpt>
      <trkpt lat="44.79267" lon="1.57501">
        <ele>142</ele>
        <time>2013-09-27T10:07:31Z</time>
      </trkpt>
      <trkpt lat="44.79274" lon="1.57491">
        <ele>142</ele>
        <time>2013-09-27T10:07:41Z</time>
      </trkpt>
      <trkpt lat="44.79281" lon="1.57482">
        <ele>142</ele>
        <time>2013-09-27T10:07:49Z</time>
      </trkpt>
      <trkpt lat="44.79288" lon="1.57474">
        <ele>135</ele>
        <time>2013-09-27T10:07:58Z</time>
      </trkpt>
      <trkpt lat="44.79296" lon="1.57466">
        <ele>135</ele>
        <time>2013-09-27T10:08:05Z</time>
      </trkpt>
      <trkpt lat="44.79304" lon="1.57457">
        <ele>135</ele>
        <time>2013-09-27T10:08:13Z</time>
      </trkpt>
      <trkpt lat="44.79309" lon="1.57446">
        <ele>135</ele>
        <time>2013-09-27T10:08:20Z</time>
      </trkpt>
      <trkpt lat="44.79316" lon="1.57434">
        <ele>135</ele>
        <time>2013-09-27T10:08:29Z</time>
      </trkpt>
      <trkpt lat="44.79322" lon="1.57423">
        <ele>135</ele>
        <time>2013-09-27T10:08:37Z</time>
      </trkpt>
      <trkpt lat="44.79325" lon="1.5741">
        <ele>135</ele>
        <time>2013-09-27T10:08:47Z</time>
      </trkpt>
      <trkpt lat="44.79327" lon="1.57397">
        <ele>135</ele>
        <time>2013-09-27T10:08:55Z</time>
      </trkpt>
      <trkpt lat="44.79329" lon="1.57383">
        <ele>135</ele>
        <time>2013-09-27T10:09:05Z</time>
      </trkpt>
      <trkpt lat="44.7933" lon="1.5737">
        <ele>135</ele>
        <time>2013-09-27T10:09:20Z</time>
      </trkpt>
      <trkpt lat="44.79334" lon="1.57357">
        <ele>135</ele>
        <time>2013-09-27T10:09:30Z</time>
      </trkpt>
      <trkpt lat="44.79341" lon="1.57347">
        <ele>128</ele>
        <time>2013-09-27T10:09:50Z</time>
      </trkpt>
      <trkpt lat="44.79345" lon="1.57334">
        <ele>128</ele>
        <time>2013-09-27T10:09:59Z</time>
      </trkpt>
      <trkpt lat="44.7935" lon="1.57321">
        <ele>128</ele>
        <time>2013-09-27T10:10:08Z</time>
      </trkpt>
      <trkpt lat="44.79356" lon="1.5731">
        <ele>135</ele>
        <time>2013-09-27T10:10:18Z</time>
      </trkpt>
      <trkpt lat="44.79361" lon="1.57299">
        <ele>135</ele>
        <time>2013-09-27T10:10:26Z</time>
      </trkpt>
      <trkpt lat="44.79366" lon="1.57285">
        <ele>135</ele>
        <time>2013-09-27T10:10:35Z</time>
      </trkpt>
      <trkpt lat="44.7937" lon="1.57272">
        <ele>135</ele>
        <time>2013-09-27T10:10:44Z</time>
      </trkpt>
      <trkpt lat="44.79375" lon="1.5726">
        <ele>135</ele>
        <time>2013-09-27T10:10:52Z</time>
      </trkpt>
      <trkpt lat="44.79381" lon="1.57249">
        <ele>140</ele>
        <time>2013-09-27T10:11:03Z</time>
      </trkpt>
      <trkpt lat="44.79389" lon="1.57239">
        <ele>140</ele>
        <time>2013-09-27T10:11:12Z</time>
      </trkpt>
      <trkpt lat="44.79395" lon="1.57229">
        <ele>140</ele>
        <time>2013-09-27T10:11:20Z</time>
      </trkpt>
      <trkpt lat="44.79401" lon="1.57218">
        <ele>140</ele>
        <time>2013-09-27T10:11:27Z</time>
      </trkpt>
      <trkpt lat="44.79408" lon="1.57208">
        <ele>140</ele>
        <time>2013-09-27T10:11:36Z</time>
      </trkpt>
      <trkpt lat="44.79416" lon="1.572">
        <ele>140</ele>
        <time>2013-09-27T10:11:44Z</time>
      </trkpt>
      <trkpt lat="44.79424" lon="1.57193">
        <ele>140</ele>
        <time>2013-09-27T10:11:53Z</time>
      </trkpt>
      <trkpt lat="44.79431" lon="1.57183">
        <ele>134</ele>
        <time>2013-09-27T10:12:01Z</time>
      </trkpt>
      <trkpt lat="44.79439" lon="1.57174">
        <ele>134</ele>
        <time>2013-09-27T10:12:08Z</time>
      </trkpt>
      <trkpt lat="44.79447" lon="1.57165">
        <ele>134</ele>
        <time>2013-09-27T10:12:15Z</time>
      </trkpt>
      <trkpt lat="44.79455" lon="1.57158">
        <ele>134</ele>
        <time>2013-09-27T10:12:23Z</time>
      </trkpt>
      <trkpt lat="44.79463" lon="1.5715">
        <ele>134</ele>
        <time>2013-09-27T10:12:31Z</time>
      </trkpt>
      <trkpt lat="44.79471" lon="1.57141">
        <ele>134</ele>
        <time>2013-09-27T10:12:40Z</time>
      </trkpt>
      <trkpt lat="44.79476" lon="1.57129">
        <ele>142</ele>
        <time>2013-09-27T10:12:48Z</time>
      </trkpt>
      <trkpt lat="44.79483" lon="1.57119">
        <ele>142</ele>
        <time>2013-09-27T10:12:56Z</time>
      </trkpt>
      <trkpt lat="44.7949" lon="1.57108">
        <ele>142</ele>
        <time>2013-09-27T10:13:04Z</time>
      </trkpt>
      <trkpt lat="44.79498" lon="1.57098">
        <ele>142</ele>
        <time>2013-09-27T10:13:11Z</time>
      </trkpt>
      <trkpt lat="44.79504" lon="1.57088">
        <ele>142</ele>
        <time>2013-09-27T10:13:18Z</time>
      </trkpt>
      <trkpt lat="44.79511" lon="1.57079">
        <ele>136</ele>
        <time>2013-09-27T10:13:25Z</time>
      </trkpt>
      <trkpt lat="44.79518" lon="1.57069">
        <ele>136</ele>
        <time>2013-09-27T10:13:32Z</time>
      </trkpt>
      <trkpt lat="44.79525" lon="1.5706">
        <ele>136</ele>
        <time>2013-09-27T10:13:41Z</time>
      </trkpt>
      <trkpt lat="44.79533" lon="1.57051">
        <ele>136</ele>
        <time>2013-09-27T10:13:49Z</time>
      </trkpt>
      <trkpt lat="44.7954" lon="1.57042">
        <ele>136</ele>
        <time>2013-09-27T10:13:58Z</time>
      </trkpt>
      <trkpt lat="44.79547" lon="1.57033">
        <ele>136</ele>
        <time>2013-09-27T10:14:06Z</time>
      </trkpt>
      <trkpt lat="44.79554" lon="1.57022">
        <ele>136</ele>
        <time>2013-09-27T10:14:15Z</time>
      </trkpt>
      <trkpt lat="44.79561" lon="1.57013">
        <ele>142</ele>
        <time>2013-09-27T10:14:24Z</time>
      </trkpt>
      <trkpt lat="44.79568" lon="1.57004">
        <ele>142</ele>
        <time>2013-09-27T10:14:32Z</time>
      </trkpt>
      <trkpt lat="44.79576" lon="1.56994">
        <ele>142</ele>
        <time>2013-09-27T10:14:41Z</time>
      </trkpt>
      <trkpt lat="44.79584" lon="1.56988">
        <ele>142</ele>
        <time>2013-09-27T10:14:51Z</time>
      </trkpt>
      <trkpt lat="44.79588" lon="1.56975">
        <ele>147</ele>
        <time>2013-09-27T10:15:16Z</time>
      </trkpt>
      <trkpt lat="44.79588" lon="1.56961">
        <ele>147</ele>
        <time>2013-09-27T10:15:23Z</time>
      </trkpt>
      <trkpt lat="44.79588" lon="1.56947">
        <ele>153</ele>
        <time>2013-09-27T10:15:30Z</time>
      </trkpt>
      <trkpt lat="44.7959" lon="1.56933">
        <ele>153</ele>
        <time>2013-09-27T10:15:38Z</time>
      </trkpt>
      <trkpt lat="44.79594" lon="1.56921">
        <ele>153</ele>
        <time>2013-09-27T10:15:45Z</time>
      </trkpt>
      <trkpt lat="44.79599" lon="1.56909">
        <ele>153</ele>
        <time>2013-09-27T10:15:54Z</time>
      </trkpt>
      <trkpt lat="44.79599" lon="1.56894">
        <ele>153</ele>
        <time>2013-09-27T10:16:04Z</time>
      </trkpt>
      <trkpt lat="44.79596" lon="1.56881">
        <ele>153</ele>
        <time>2013-09-27T10:16:12Z</time>
      </trkpt>
      <trkpt lat="44.7959" lon="1.56868">
        <ele>153</ele>
        <time>2013-09-27T10:16:19Z</time>
      </trkpt>
      <trkpt lat="44.79588" lon="1.56856">
        <ele>153</ele>
        <time>2013-09-27T10:16:26Z</time>
      </trkpt>
      <trkpt lat="44.79583" lon="1.56843">
        <ele>153</ele>
        <time>2013-09-27T10:16:35Z</time>
      </trkpt>
      <trkpt lat="44.79579" lon="1.56831">
        <ele>153</ele>
        <time>2013-09-27T10:16:43Z</time>
      </trkpt>
      <trkpt lat="44.79571" lon="1.56823">
        <ele>153</ele>
        <time>2013-09-27T10:16:51Z</time>
      </trkpt>
      <trkpt lat="44.79563" lon="1.56815">
        <ele>153</ele>
        <time>2013-09-27T10:16:58Z</time>
      </trkpt>
      <trkpt lat="44.79558" lon="1.56803">
        <ele>144</ele>
        <time>2013-09-27T10:17:05Z</time>
      </trkpt>
      <trkpt lat="44.79549" lon="1.56796">
        <ele>144</ele>
        <time>2013-09-27T10:17:13Z</time>
      </trkpt>
      <trkpt lat="44.79544" lon="1.56784">
        <ele>144</ele>
        <time>2013-09-27T10:17:33Z</time>
      </trkpt>
      <trkpt lat="44.79538" lon="1.56772">
        <ele>144</ele>
        <time>2013-09-27T10:17:45Z</time>
      </trkpt>
      <trkpt lat="44.79533" lon="1.56761">
        <ele>144</ele>
        <time>2013-09-27T10:18:25Z</time>
      </trkpt>
      <trkpt lat="44.79525" lon="1.56753">
        <ele>144</ele>
        <time>2013-09-27T10:18:34Z</time>
      </trkpt>
      <trkpt lat="44.79517" lon="1.56746">
        <ele>144</ele>
        <time>2013-09-27T10:18:42Z</time>
      </trkpt>
      <trkpt lat="44.79509" lon="1.56738">
        <ele>139</ele>
        <time>2013-09-27T10:18:52Z</time>
      </trkpt>
      <trkpt lat="44.79502" lon="1.56729">
        <ele>139</ele>
        <time>2013-09-27T10:19:03Z</time>
      </trkpt>
      <trkpt lat="44.79495" lon="1.56718">
        <ele>139</ele>
        <time>2013-09-27T10:19:32Z</time>
      </trkpt>
      <trkpt lat="44.79487" lon="1.56709">
        <ele>139</ele>
        <time>2013-09-27T10:19:41Z</time>
      </trkpt>
      <trkpt lat="44.7948" lon="1.567">
        <ele>139</ele>
        <time>2013-09-27T10:19:52Z</time>
      </trkpt>
      <trkpt lat="44.79473" lon="1.56691">
        <ele>133</ele>
        <time>2013-09-27T10:20:07Z</time>
      </trkpt>
      <trkpt lat="44.79467" lon="1.56679">
        <ele>133</ele>
        <time>2013-09-27T10:20:20Z</time>
      </trkpt>
      <trkpt lat="44.79464" lon="1.56666">
        <ele>133</ele>
        <time>2013-09-27T10:20:31Z</time>
      </trkpt>
      <trkpt lat="44.79464" lon="1.56652">
        <ele>133</ele>
        <time>2013-09-27T10:20:42Z</time>
      </trkpt>
      <trkpt lat="44.79464" lon="1.56638">
        <ele>133</ele>
        <time>2013-09-27T10:20:53Z</time>
      </trkpt>
      <trkpt lat="44.7947" lon="1.56626">
        <ele>133</ele>
        <time>2013-09-27T10:21:06Z</time>
      </trkpt>
      <trkpt lat="44.79474" lon="1.56613">
        <ele>133</ele>
        <time>2013-09-27T10:21:20Z</time>
      </trkpt>
      <trkpt lat="44.79481" lon="1.56604">
        <ele>127</ele>
        <time>2013-09-27T10:21:32Z</time>
      </trkpt>
      <trkpt lat="44.79487" lon="1.56593">
        <ele>127</ele>
        <time>2013-09-27T10:21:44Z</time>
      </trkpt>
      <trkpt lat="44.79496" lon="1.56586">
        <ele>118</ele>
        <time>2013-09-27T10:21:52Z</time>
      </trkpt>
      <trkpt lat="44.79504" lon="1.56579">
        <ele>118</ele>
        <time>2013-09-27T10:22:00Z</time>
      </trkpt>
      <trkpt lat="44.79513" lon="1.56569">
        <ele>112</ele>
        <time>2013-09-27T10:22:07Z</time>
      </trkpt>
      <trkpt lat="44.79522" lon="1.5656">
        <ele>112</ele>
        <time>2013-09-27T10:22:15Z</time>
      </trkpt>
      <trkpt lat="44.79531" lon="1.56554">
        <ele>112</ele>
        <time>2013-09-27T10:22:27Z</time>
      </trkpt>
      <trkpt lat="44.7954" lon="1.56547">
        <ele>117</ele>
        <time>2013-09-27T10:22:35Z</time>
      </trkpt>
      <trkpt lat="44.79545" lon="1.56534">
        <ele>112</ele>
        <time>2013-09-27T10:22:44Z</time>
      </trkpt>
      <trkpt lat="44.79549" lon="1.56522">
        <ele>112</ele>
        <time>2013-09-27T10:22:57Z</time>
      </trkpt>
      <trkpt lat="44.79558" lon="1.56516">
        <ele>112</ele>
        <time>2013-09-27T10:23:03Z</time>
      </trkpt>
      <trkpt lat="44.79566" lon="1.56507">
        <ele>112</ele>
        <time>2013-09-27T10:23:11Z</time>
      </trkpt>
      <trkpt lat="44.79573" lon="1.56498">
        <ele>112</ele>
        <time>2013-09-27T10:23:19Z</time>
      </trkpt>
      <trkpt lat="44.79581" lon="1.5649">
        <ele>123</ele>
        <time>2013-09-27T10:23:46Z</time>
      </trkpt>
      <trkpt lat="44.79579" lon="1.56504">
        <ele>103</ele>
        <time>2013-09-27T10:24:44Z</time>
      </trkpt>
      <trkpt lat="44.79572" lon="1.56512">
        <ele>117</ele>
        <time>2013-09-27T10:25:22Z</time>
      </trkpt>
      <trkpt lat="44.79565" lon="1.56522">
        <ele>131</ele>
        <time>2013-09-27T10:25:36Z</time>
      </trkpt>
      <trkpt lat="44.79556" lon="1.56522">
        <ele>138</ele>
        <time>2013-09-27T10:25:47Z</time>
      </trkpt>
      <trkpt lat="44.79555" lon="1.56535">
        <ele>126</ele>
        <time>2013-09-27T10:26:25Z</time>
      </trkpt>
      <trkpt lat="44.79557" lon="1.56522">
        <ele>118</ele>
        <time>2013-09-27T10:26:47Z</time>
      </trkpt>
      <trkpt lat="44.79564" lon="1.56513">
        <ele>118</ele>
        <time>2013-09-27T10:26:58Z</time>
      </trkpt>
      <trkpt lat="44.7957" lon="1.56501">
        <ele>118</ele>
        <time>2013-09-27T10:27:10Z</time>
      </trkpt>
      <trkpt lat="44.79577" lon="1.56491">
        <ele>118</ele>
        <time>2013-09-27T10:27:20Z</time>
      </trkpt>
      <trkpt lat="44.79584" lon="1.56483">
        <ele>118</ele>
        <time>2013-09-27T10:27:27Z</time>
      </trkpt>
      <trkpt lat="44.79592" lon="1.56474">
        <ele>110</ele>
        <time>2013-09-27T10:27:37Z</time>
      </trkpt>
      <trkpt lat="44.79599" lon="1.56464">
        <ele>110</ele>
        <time>2013-09-27T10:27:46Z</time>
      </trkpt>
      <trkpt lat="44.79606" lon="1.56455">
        <ele>110</ele>
        <time>2013-09-27T10:27:53Z</time>
      </trkpt>
      <trkpt lat="44.79612" lon="1.56445">
        <ele>110</ele>
        <time>2013-09-27T10:28:03Z</time>
      </trkpt>
      <trkpt lat="44.79619" lon="1.56436">
        <ele>110</ele>
        <time>2013-09-27T10:28:12Z</time>
      </trkpt>
      <trkpt lat="44.79629" lon="1.5643">
        <ele>110</ele>
        <time>2013-09-27T10:28:21Z</time>
      </trkpt>
      <trkpt lat="44.79637" lon="1.56423">
        <ele>110</ele>
        <time>2013-09-27T10:28:32Z</time>
      </trkpt>
      <trkpt lat="44.79645" lon="1.56416">
        <ele>110</ele>
        <time>2013-09-27T10:28:42Z</time>
      </trkpt>
      <trkpt lat="44.79654" lon="1.56408">
        <ele>110</ele>
        <time>2013-09-27T10:28:52Z</time>
      </trkpt>
      <trkpt lat="44.79662" lon="1.564">
        <ele>110</ele>
        <time>2013-09-27T10:29:04Z</time>
      </trkpt>
      <trkpt lat="44.79669" lon="1.56389">
        <ele>110</ele>
        <time>2013-09-27T10:29:16Z</time>
      </trkpt>
      <trkpt lat="44.79675" lon="1.56378">
        <ele>110</ele>
        <time>2013-09-27T10:29:27Z</time>
      </trkpt>
      <trkpt lat="44.79679" lon="1.56366">
        <ele>110</ele>
        <time>2013-09-27T10:29:36Z</time>
      </trkpt>
      <trkpt lat="44.79686" lon="1.56356">
        <ele>110</ele>
        <time>2013-09-27T10:29:46Z</time>
      </trkpt>
      <trkpt lat="44.79693" lon="1.56346">
        <ele>110</ele>
        <time>2013-09-27T10:29:55Z</time>
      </trkpt>
      <trkpt lat="44.797" lon="1.56335">
        <ele>110</ele>
        <time>2013-09-27T10:30:06Z</time>
      </trkpt>
      <trkpt lat="44.79702" lon="1.56322">
        <ele>110</ele>
        <time>2013-09-27T10:30:16Z</time>
      </trkpt>
      <trkpt lat="44.79711" lon="1.56315">
        <ele>110</ele>
        <time>2013-09-27T10:30:24Z</time>
      </trkpt>
      <trkpt lat="44.79719" lon="1.56308">
        <ele>110</ele>
        <time>2013-09-27T10:30:34Z</time>
      </trkpt>
      <trkpt lat="44.79721" lon="1.56293">
        <ele>110</ele>
        <time>2013-09-27T10:30:47Z</time>
      </trkpt>
      <trkpt lat="44.79726" lon="1.56281">
        <ele>110</ele>
        <time>2013-09-27T10:32:04Z</time>
      </trkpt>
      <trkpt lat="44.79728" lon="1.56267">
        <ele>110</ele>
        <time>2013-09-27T10:32:32Z</time>
      </trkpt>
      <trkpt lat="44.79734" lon="1.56257">
        <ele>110</ele>
        <time>2013-09-27T10:32:46Z</time>
      </trkpt>
      <trkpt lat="44.79737" lon="1.56243">
        <ele>110</ele>
        <time>2013-09-27T10:32:57Z</time>
      </trkpt>
      <trkpt lat="44.79741" lon="1.56231">
        <ele>110</ele>
        <time>2013-09-27T10:33:08Z</time>
      </trkpt>
      <trkpt lat="44.79748" lon="1.5622">
        <ele>110</ele>
        <time>2013-09-27T10:33:17Z</time>
      </trkpt>
      <trkpt lat="44.79753" lon="1.56207">
        <ele>110</ele>
        <time>2013-09-27T10:33:26Z</time>
      </trkpt>
      <trkpt lat="44.79761" lon="1.562">
        <ele>110</ele>
        <time>2013-09-27T10:33:34Z</time>
      </trkpt>
      <trkpt lat="44.79768" lon="1.5619">
        <ele>110</ele>
        <time>2013-09-27T10:33:43Z</time>
      </trkpt>
      <trkpt lat="44.79775" lon="1.5618">
        <ele>110</ele>
        <time>2013-09-27T10:33:52Z</time>
      </trkpt>
      <trkpt lat="44.79782" lon="1.56169">
        <ele>110</ele>
        <time>2013-09-27T10:34:00Z</time>
      </trkpt>
      <trkpt lat="44.79788" lon="1.56159">
        <ele>110</ele>
        <time>2013-09-27T10:34:08Z</time>
      </trkpt>
      <trkpt lat="44.79796" lon="1.56149">
        <ele>110</ele>
        <time>2013-09-27T10:34:17Z</time>
      </trkpt>
      <trkpt lat="44.79805" lon="1.56141">
        <ele>110</ele>
        <time>2013-09-27T10:34:27Z</time>
      </trkpt>
      <trkpt lat="44.79812" lon="1.56133">
        <ele>110</ele>
        <time>2013-09-27T10:34:36Z</time>
      </trkpt>
      <trkpt lat="44.79821" lon="1.56126">
        <ele>110</ele>
        <time>2013-09-27T10:34:48Z</time>
      </trkpt>
      <trkpt lat="44.79829" lon="1.56118">
        <ele>110</ele>
        <time>2013-09-27T10:34:57Z</time>
      </trkpt>
      <trkpt lat="44.79838" lon="1.5611">
        <ele>110</ele>
        <time>2013-09-27T10:35:07Z</time>
      </trkpt>
      <trkpt lat="44.79845" lon="1.56101">
        <ele>110</ele>
        <time>2013-09-27T10:35:15Z</time>
      </trkpt>
      <trkpt lat="44.79851" lon="1.56091">
        <ele>110</ele>
        <time>2013-09-27T10:35:25Z</time>
      </trkpt>
      <trkpt lat="44.79858" lon="1.56082">
        <ele>110</ele>
        <time>2013-09-27T10:35:33Z</time>
      </trkpt>
      <trkpt lat="44.79863" lon="1.56071">
        <ele>110</ele>
        <time>2013-09-27T10:35:41Z</time>
      </trkpt>
      <trkpt lat="44.7987" lon="1.5606">
        <ele>110</ele>
        <time>2013-09-27T10:35:51Z</time>
      </trkpt>
      <trkpt lat="44.79878" lon="1.56054">
        <ele>110</ele>
        <time>2013-09-27T10:35:58Z</time>
      </trkpt>
      <trkpt lat="44.79884" lon="1.56044">
        <ele>110</ele>
        <time>2013-09-27T10:36:44Z</time>
      </trkpt>
      <trkpt lat="44.79893" lon="1.56037">
        <ele>110</ele>
        <time>2013-09-27T10:36:53Z</time>
      </trkpt>
      <trkpt lat="44.79903" lon="1.56033">
        <ele>110</ele>
        <time>2013-09-27T10:37:00Z</time>
      </trkpt>
      <trkpt lat="44.79911" lon="1.56026">
        <ele>110</ele>
        <time>2013-09-27T10:37:08Z</time>
      </trkpt>
      <trkpt lat="44.7992" lon="1.56019">
        <ele>110</ele>
        <time>2013-09-27T10:38:07Z</time>
      </trkpt>
      <trkpt lat="44.79928" lon="1.56026">
        <ele>120</ele>
        <time>2013-09-27T10:38:25Z</time>
      </trkpt>
      <trkpt lat="44.79934" lon="1.56036">
        <ele>120</ele>
        <time>2013-09-27T10:38:37Z</time>
      </trkpt>
      <trkpt lat="44.79941" lon="1.56048">
        <ele>120</ele>
        <time>2013-09-27T10:38:46Z</time>
      </trkpt>
      <trkpt lat="44.79948" lon="1.56058">
        <ele>120</ele>
        <time>2013-09-27T10:38:54Z</time>
      </trkpt>
      <trkpt lat="44.79954" lon="1.56069">
        <ele>120</ele>
        <time>2013-09-27T10:39:03Z</time>
      </trkpt>
      <trkpt lat="44.79962" lon="1.56079">
        <ele>120</ele>
        <time>2013-09-27T10:39:11Z</time>
      </trkpt>
      <trkpt lat="44.79971" lon="1.56081">
        <ele>120</ele>
        <time>2013-09-27T10:39:21Z</time>
      </trkpt>
      <trkpt lat="44.7998" lon="1.56071">
        <ele>120</ele>
        <time>2013-09-27T10:39:33Z</time>
      </trkpt>
      <trkpt lat="44.79986" lon="1.56061">
        <ele>120</ele>
        <time>2013-09-27T10:39:44Z</time>
      </trkpt>
      <trkpt lat="44.79993" lon="1.56049">
        <ele>115</ele>
        <time>2013-09-27T10:39:53Z</time>
      </trkpt>
      <trkpt lat="44.79998" lon="1.56037">
        <ele>115</ele>
        <time>2013-09-27T10:40:01Z</time>
      </trkpt>
      <trkpt lat="44.80003" lon="1.56026">
        <ele>115</ele>
        <time>2013-09-27T10:40:09Z</time>
      </trkpt>
      <trkpt lat="44.8001" lon="1.56017">
        <ele>110</ele>
        <time>2013-09-27T10:40:16Z</time>
      </trkpt>
      <trkpt lat="44.80018" lon="1.56009">
        <ele>110</ele>
        <time>2013-09-27T10:40:24Z</time>
      </trkpt>
      <trkpt lat="44.80028" lon="1.56006">
        <ele>116</ele>
        <time>2013-09-27T10:40:33Z</time>
      </trkpt>
      <trkpt lat="44.80036" lon="1.56">
        <ele>116</ele>
        <time>2013-09-27T10:40:48Z</time>
      </trkpt>
      <trkpt lat="44.80045" lon="1.55992">
        <ele>116</ele>
        <time>2013-09-27T10:40:59Z</time>
      </trkpt>
      <trkpt lat="44.80053" lon="1.55985">
        <ele>116</ele>
        <time>2013-09-27T10:41:08Z</time>
      </trkpt>
      <trkpt lat="44.80062" lon="1.55981">
        <ele>116</ele>
        <time>2013-09-27T10:41:15Z</time>
      </trkpt>
      <trkpt lat="44.80071" lon="1.55976">
        <ele>116</ele>
        <time>2013-09-27T10:41:23Z</time>
      </trkpt>
      <trkpt lat="44.80081" lon="1.55973">
        <ele>116</ele>
        <time>2013-09-27T10:41:33Z</time>
      </trkpt>
      <trkpt lat="44.80091" lon="1.5597">
        <ele>116</ele>
        <time>2013-09-27T10:41:41Z</time>
      </trkpt>
      <trkpt lat="44.80101" lon="1.55966">
        <ele>116</ele>
        <time>2013-09-27T10:41:50Z</time>
      </trkpt>
      <trkpt lat="44.8011" lon="1.55962">
        <ele>116</ele>
        <time>2013-09-27T10:41:59Z</time>
      </trkpt>
      <trkpt lat="44.80119" lon="1.55957">
        <ele>116</ele>
        <time>2013-09-27T10:42:08Z</time>
      </trkpt>
      <trkpt lat="44.80128" lon="1.55951">
        <ele>116</ele>
        <time>2013-09-27T10:42:17Z</time>
      </trkpt>
      <trkpt lat="44.80136" lon="1.55944">
        <ele>116</ele>
        <time>2013-09-27T10:42:28Z</time>
      </trkpt>
      <trkpt lat="44.80145" lon="1.55937">
        <ele>116</ele>
        <time>2013-09-27T10:42:36Z</time>
      </trkpt>
      <trkpt lat="44.80153" lon="1.55931">
        <ele>116</ele>
        <time>2013-09-27T10:42:43Z</time>
      </trkpt>
      <trkpt lat="44.80161" lon="1.55924">
        <ele>116</ele>
        <time>2013-09-27T10:42:51Z</time>
      </trkpt>
      <trkpt lat="44.80171" lon="1.55919">
        <ele>116</ele>
        <time>2013-09-27T10:43:01Z</time>
      </trkpt>
      <trkpt lat="44.80181" lon="1.55914">
        <ele>116</ele>
        <time>2013-09-27T10:43:14Z</time>
      </trkpt>
      <trkpt lat="44.80189" lon="1.55904">
        <ele>122</ele>
        <time>2013-09-27T10:43:24Z</time>
      </trkpt>
      <trkpt lat="44.80198" lon="1.55897">
        <ele>122</ele>
        <time>2013-09-27T10:43:43Z</time>
      </trkpt>
      <trkpt lat="44.80206" lon="1.55889">
        <ele>122</ele>
        <time>2013-09-27T10:44:11Z</time>
      </trkpt>
      <trkpt lat="44.80215" lon="1.55881">
        <ele>122</ele>
        <time>2013-09-27T10:44:19Z</time>
      </trkpt>
      <trkpt lat="44.80225" lon="1.55876">
        <ele>122</ele>
        <time>2013-09-27T10:44:31Z</time>
      </trkpt>
      <trkpt lat="44.80233" lon="1.55869">
        <ele>122</ele>
        <time>2013-09-27T10:44:40Z</time>
      </trkpt>
      <trkpt lat="44.80241" lon="1.55862">
        <ele>122</ele>
        <time>2013-09-27T10:44:47Z</time>
      </trkpt>
      <trkpt lat="44.8025" lon="1.55855">
        <ele>122</ele>
        <time>2013-09-27T10:44:54Z</time>
      </trkpt>
      <trkpt lat="44.80259" lon="1.55851">
        <ele>122</ele>
        <time>2013-09-27T10:45:01Z</time>
      </trkpt>
      <trkpt lat="44.80267" lon="1.55844">
        <ele>122</ele>
        <time>2013-09-27T10:45:07Z</time>
      </trkpt>
      <trkpt lat="44.80276" lon="1.55841">
        <ele>122</ele>
        <time>2013-09-27T10:45:14Z</time>
      </trkpt>
      <trkpt lat="44.80284" lon="1.55833">
        <ele>122</ele>
        <time>2013-09-27T10:45:22Z</time>
      </trkpt>
      <trkpt lat="44.80292" lon="1.55825">
        <ele>122</ele>
        <time>2013-09-27T10:45:30Z</time>
      </trkpt>
      <trkpt lat="44.80301" lon="1.5582">
        <ele>122</ele>
        <time>2013-09-27T10:45:37Z</time>
      </trkpt>
      <trkpt lat="44.8031" lon="1.55814">
        <ele>122</ele>
        <time>2013-09-27T10:45:44Z</time>
      </trkpt>
      <trkpt lat="44.80317" lon="1.55806">
        <ele>122</ele>
        <time>2013-09-27T10:45:51Z</time>
      </trkpt>
      <trkpt lat="44.80326" lon="1.55799">
        <ele>122</ele>
        <time>2013-09-27T10:45:59Z</time>
      </trkpt>
      <trkpt lat="44.80335" lon="1.55796">
        <ele>122</ele>
        <time>2013-09-27T10:46:07Z</time>
      </trkpt>
      <trkpt lat="44.80344" lon="1.5579">
        <ele>122</ele>
        <time>2013-09-27T10:46:15Z</time>
      </trkpt>
      <trkpt lat="44.80353" lon="1.55786">
        <ele>116</ele>
        <time>2013-09-27T10:46:23Z</time>
      </trkpt>
      <trkpt lat="44.80362" lon="1.5578">
        <ele>116</ele>
        <time>2013-09-27T10:46:31Z</time>
      </trkpt>
      <trkpt lat="44.8037" lon="1.55773">
        <ele>116</ele>
        <time>2013-09-27T10:46:42Z</time>
      </trkpt>
      <trkpt lat="44.80378" lon="1.55765">
        <ele>116</ele>
        <time>2013-09-27T10:46:56Z</time>
      </trkpt>
      <trkpt lat="44.80387" lon="1.5576">
        <ele>116</ele>
        <time>2013-09-27T10:47:04Z</time>
      </trkpt>
      <trkpt lat="44.80395" lon="1.55753">
        <ele>116</ele>
        <time>2013-09-27T10:47:13Z</time>
      </trkpt>
      <trkpt lat="44.80405" lon="1.55752">
        <ele>124</ele>
        <time>2013-09-27T10:47:22Z</time>
      </trkpt>
      <trkpt lat="44.80415" lon="1.55754">
        <ele>130</ele>
        <time>2013-09-27T10:47:32Z</time>
      </trkpt>
      <trkpt lat="44.80425" lon="1.55757">
        <ele>130</ele>
        <time>2013-09-27T10:47:39Z</time>
      </trkpt>
      <trkpt lat="44.80433" lon="1.55763">
        <ele>130</ele>
        <time>2013-09-27T10:47:48Z</time>
      </trkpt>
      <trkpt lat="44.80442" lon="1.55772">
        <ele>122</ele>
        <time>2013-09-27T10:47:56Z</time>
      </trkpt>
      <trkpt lat="44.8045" lon="1.5578">
        <ele>122</ele>
        <time>2013-09-27T10:48:03Z</time>
      </trkpt>
      <trkpt lat="44.80458" lon="1.55787">
        <ele>122</ele>
        <time>2013-09-27T10:48:10Z</time>
      </trkpt>
      <trkpt lat="44.80466" lon="1.55795">
        <ele>122</ele>
        <time>2013-09-27T10:48:17Z</time>
      </trkpt>
      <trkpt lat="44.80474" lon="1.55804">
        <ele>122</ele>
        <time>2013-09-27T10:48:26Z</time>
      </trkpt>
      <trkpt lat="44.80481" lon="1.55813">
        <ele>122</ele>
        <time>2013-09-27T10:48:32Z</time>
      </trkpt>
      <trkpt lat="44.80488" lon="1.55823">
        <ele>122</ele>
        <time>2013-09-27T10:48:40Z</time>
      </trkpt>
      <trkpt lat="44.80496" lon="1.55832">
        <ele>122</ele>
        <time>2013-09-27T10:48:48Z</time>
      </trkpt>
      <trkpt lat="44.80505" lon="1.5584">
        <ele>128</ele>
        <time>2013-09-27T10:48:58Z</time>
      </trkpt>
      <trkpt lat="44.80512" lon="1.55849">
        <ele>128</ele>
        <time>2013-09-27T10:49:06Z</time>
      </trkpt>
      <trkpt lat="44.80519" lon="1.55859">
        <ele>128</ele>
        <time>2013-09-27T10:49:16Z</time>
      </trkpt>
      <trkpt lat="44.80526" lon="1.55868">
        <ele>134</ele>
        <time>2013-09-27T10:49:25Z</time>
      </trkpt>
      <trkpt lat="44.80533" lon="1.55879">
        <ele>128</ele>
        <time>2013-09-27T10:49:31Z</time>
      </trkpt>
      <trkpt lat="44.80541" lon="1.55888">
        <ele>128</ele>
        <time>2013-09-27T10:49:38Z</time>
      </trkpt>
      <trkpt lat="44.80547" lon="1.55899">
        <ele>120</ele>
        <time>2013-09-27T10:49:45Z</time>
      </trkpt>
      <trkpt lat="44.80553" lon="1.5591">
        <ele>120</ele>
        <time>2013-09-27T10:49:53Z</time>
      </trkpt>
      <trkpt lat="44.8056" lon="1.55919">
        <ele>125</ele>
        <time>2013-09-27T10:50:03Z</time>
      </trkpt>
      <trkpt lat="44.80566" lon="1.5593">
        <ele>125</ele>
        <time>2013-09-27T10:50:12Z</time>
      </trkpt>
      <trkpt lat="44.80573" lon="1.55939">
        <ele>125</ele>
        <time>2013-09-27T10:50:20Z</time>
      </trkpt>
      <trkpt lat="44.8058" lon="1.5595">
        <ele>125</ele>
        <time>2013-09-27T10:50:27Z</time>
      </trkpt>
      <trkpt lat="44.80584" lon="1.55962">
        <ele>120</ele>
        <time>2013-09-27T10:50:34Z</time>
      </trkpt>
      <trkpt lat="44.80589" lon="1.55974">
        <ele>120</ele>
        <time>2013-09-27T10:50:41Z</time>
      </trkpt>
      <trkpt lat="44.80596" lon="1.55984">
        <ele>125</ele>
        <time>2013-09-27T10:50:56Z</time>
      </trkpt>
      <trkpt lat="44.80604" lon="1.55992">
        <ele>125</ele>
        <time>2013-09-27T10:51:05Z</time>
      </trkpt>
      <trkpt lat="44.80611" lon="1.56003">
        <ele>125</ele>
        <time>2013-09-27T10:51:11Z</time>
      </trkpt>
      <trkpt lat="44.80618" lon="1.56013">
        <ele>117</ele>
        <time>2013-09-27T10:51:19Z</time>
      </trkpt>
      <trkpt lat="44.80625" lon="1.56022">
        <ele>117</ele>
        <time>2013-09-27T10:51:27Z</time>
      </trkpt>
      <trkpt lat="44.80633" lon="1.5603">
        <ele>117</ele>
        <time>2013-09-27T10:51:38Z</time>
      </trkpt>
      <trkpt lat="44.80641" lon="1.56038">
        <ele>129</ele>
        <time>2013-09-27T10:51:49Z</time>
      </trkpt>
      <trkpt lat="44.80649" lon="1.56047">
        <ele>129</ele>
        <time>2013-09-27T10:51:58Z</time>
      </trkpt>
      <trkpt lat="44.80655" lon="1.56058">
        <ele>129</ele>
        <time>2013-09-27T10:52:04Z</time>
      </trkpt>
      <trkpt lat="44.8066" lon="1.5607">
        <ele>123</ele>
        <time>2013-09-27T10:52:10Z</time>
      </trkpt>
      <trkpt lat="44.80663" lon="1.56082">
        <ele>123</ele>
        <time>2013-09-27T10:52:18Z</time>
      </trkpt>
      <trkpt lat="44.80667" lon="1.56095">
        <ele>123</ele>
        <time>2013-09-27T10:52:27Z</time>
      </trkpt>
      <trkpt lat="44.80668" lon="1.5611">
        <ele>123</ele>
        <time>2013-09-27T10:52:36Z</time>
      </trkpt>
      <trkpt lat="44.80669" lon="1.56124">
        <ele>123</ele>
        <time>2013-09-27T10:52:45Z</time>
      </trkpt>
      <trkpt lat="44.80674" lon="1.56135">
        <ele>123</ele>
        <time>2013-09-27T10:52:58Z</time>
      </trkpt>
      <trkpt lat="44.80678" lon="1.56148">
        <ele>132</ele>
        <time>2013-09-27T10:53:08Z</time>
      </trkpt>
      <trkpt lat="44.80682" lon="1.5616">
        <ele>132</ele>
        <time>2013-09-27T10:53:16Z</time>
      </trkpt>
      <trkpt lat="44.80686" lon="1.56172">
        <ele>132</ele>
        <time>2013-09-27T10:53:24Z</time>
      </trkpt>
      <trkpt lat="44.8069" lon="1.56185">
        <ele>132</ele>
        <time>2013-09-27T10:53:33Z</time>
      </trkpt>
      <trkpt lat="44.80692" lon="1.56198">
        <ele>141</ele>
        <time>2013-09-27T10:53:44Z</time>
      </trkpt>
      <trkpt lat="44.80697" lon="1.56212">
        <ele>141</ele>
        <time>2013-09-27T10:53:53Z</time>
      </trkpt>
      <trkpt lat="44.80703" lon="1.56222">
        <ele>141</ele>
        <time>2013-09-27T10:54:02Z</time>
      </trkpt>
      <trkpt lat="44.80708" lon="1.56237">
        <ele>141</ele>
        <time>2013-09-27T10:54:14Z</time>
      </trkpt>
      <trkpt lat="44.80714" lon="1.56248">
        <ele>147</ele>
        <time>2013-09-27T10:54:26Z</time>
      </trkpt>
      <trkpt lat="44.8072" lon="1.56258">
        <ele>147</ele>
        <time>2013-09-27T10:54:33Z</time>
      </trkpt>
      <trkpt lat="44.80729" lon="1.56266">
        <ele>138</ele>
        <time>2013-09-27T10:54:42Z</time>
      </trkpt>
      <trkpt lat="44.80736" lon="1.56275">
        <ele>147</ele>
        <time>2013-09-27T10:54:52Z</time>
      </trkpt>
      <trkpt lat="44.80743" lon="1.56265">
        <ele>212</ele>
        <time>2013-09-27T10:55:18Z</time>
      </trkpt>
      <trkpt lat="44.80752" lon="1.5627">
        <ele>212</ele>
        <time>2013-09-27T10:55:27Z</time>
      </trkpt>
      <trkpt lat="44.80762" lon="1.56269">
        <ele>231</ele>
        <time>2013-09-27T10:55:41Z</time>
      </trkpt>
      <trkpt lat="44.80772" lon="1.56274">
        <ele>231</ele>
        <time>2013-09-27T10:55:49Z</time>
      </trkpt>
      <trkpt lat="44.80781" lon="1.5628">
        <ele>231</ele>
        <time>2013-09-27T10:55:57Z</time>
      </trkpt>
      <trkpt lat="44.80791" lon="1.56284">
        <ele>222</ele>
        <time>2013-09-27T10:56:04Z</time>
      </trkpt>
      <trkpt lat="44.80801" lon="1.56285">
        <ele>215</ele>
        <time>2013-09-27T10:56:12Z</time>
      </trkpt>
      <trkpt lat="44.80811" lon="1.56287">
        <ele>209</ele>
        <time>2013-09-27T10:56:19Z</time>
      </trkpt>
      <trkpt lat="44.80821" lon="1.56284">
        <ele>200</ele>
        <time>2013-09-27T10:56:28Z</time>
      </trkpt>
      <trkpt lat="44.80831" lon="1.56283">
        <ele>193</ele>
        <time>2013-09-27T10:56:37Z</time>
      </trkpt>
      <trkpt lat="44.80839" lon="1.56276">
        <ele>187</ele>
        <time>2013-09-27T10:56:46Z</time>
      </trkpt>
      <trkpt lat="44.80848" lon="1.56271">
        <ele>182</ele>
        <time>2013-09-27T10:56:54Z</time>
      </trkpt>
      <trkpt lat="44.80858" lon="1.56265">
        <ele>175</ele>
        <time>2013-09-27T10:57:05Z</time>
      </trkpt>
      <trkpt lat="44.80864" lon="1.56255">
        <ele>175</ele>
        <time>2013-09-27T10:57:15Z</time>
      </trkpt>
      <trkpt lat="44.80871" lon="1.56245">
        <ele>167</ele>
        <time>2013-09-27T10:57:24Z</time>
      </trkpt>
      <trkpt lat="44.80873" lon="1.56232">
        <ele>156</ele>
        <time>2013-09-27T10:57:38Z</time>
      </trkpt>
      <trkpt lat="44.80871" lon="1.56219">
        <ele>156</ele>
        <time>2013-09-27T10:57:45Z</time>
      </trkpt>
      <trkpt lat="44.80864" lon="1.56208">
        <ele>136</ele>
        <time>2013-09-27T10:58:15Z</time>
      </trkpt>
      <trkpt lat="44.80856" lon="1.56202">
        <ele>136</ele>
        <time>2013-09-27T10:58:31Z</time>
      </trkpt>
      <trkpt lat="44.80851" lon="1.56189">
        <ele>130</ele>
        <time>2013-09-27T10:58:42Z</time>
      </trkpt>
      <trkpt lat="44.80854" lon="1.56177">
        <ele>130</ele>
        <time>2013-09-27T10:58:50Z</time>
      </trkpt>
      <trkpt lat="44.80859" lon="1.5616">
        <ele>130</ele>
        <time>2013-09-27T10:58:55Z</time>
      </trkpt>
      <trkpt lat="44.80866" lon="1.56151">
        <ele>119</ele>
        <time>2013-09-27T10:59:01Z</time>
      </trkpt>
      <trkpt lat="44.80874" lon="1.5614">
        <ele>119</ele>
        <time>2013-09-27T10:59:06Z</time>
      </trkpt>
      <trkpt lat="44.80877" lon="1.56127">
        <ele>126</ele>
        <time>2013-09-27T10:59:12Z</time>
      </trkpt>
      <trkpt lat="44.80881" lon="1.56115">
        <ele>126</ele>
        <time>2013-09-27T10:59:21Z</time>
      </trkpt>
      <trkpt lat="44.80879" lon="1.56101">
        <ele>132</ele>
        <time>2013-09-27T10:59:59Z</time>
      </trkpt>
      <trkpt lat="44.80885" lon="1.5609">
        <ele>123</ele>
        <time>2013-09-27T11:00:12Z</time>
      </trkpt>
      <trkpt lat="44.80887" lon="1.56077">
        <ele>123</ele>
        <time>2013-09-27T11:00:22Z</time>
      </trkpt>
      <trkpt lat="44.8089" lon="1.56063">
        <ele>117</ele>
        <time>2013-09-27T11:00:30Z</time>
      </trkpt>
      <trkpt lat="44.80893" lon="1.56051">
        <ele>117</ele>
        <time>2013-09-27T11:00:37Z</time>
      </trkpt>
      <trkpt lat="44.80898" lon="1.56038">
        <ele>117</ele>
        <time>2013-09-27T11:00:44Z</time>
      </trkpt>
      <trkpt lat="44.809" lon="1.56026">
        <ele>117</ele>
        <time>2013-09-27T11:00:52Z</time>
      </trkpt>
      <trkpt lat="44.80903" lon="1.56012">
        <ele>117</ele>
        <time>2013-09-27T11:01:01Z</time>
      </trkpt>
      <trkpt lat="44.80908" lon="1.56">
        <ele>117</ele>
        <time>2013-09-27T11:01:08Z</time>
      </trkpt>
      <trkpt lat="44.80916" lon="1.5599">
        <ele>111</ele>
        <time>2013-09-27T11:01:15Z</time>
      </trkpt>
      <trkpt lat="44.80924" lon="1.55983">
        <ele>111</ele>
        <time>2013-09-27T11:01:23Z</time>
      </trkpt>
      <trkpt lat="44.80933" lon="1.55978">
        <ele>111</ele>
        <time>2013-09-27T11:01:30Z</time>
      </trkpt>
      <trkpt lat="44.80943" lon="1.55975">
        <ele>111</ele>
        <time>2013-09-27T11:01:38Z</time>
      </trkpt>
      <trkpt lat="44.80952" lon="1.55974">
        <ele>111</ele>
        <time>2013-09-27T11:01:45Z</time>
      </trkpt>
      <trkpt lat="44.80962" lon="1.55976">
        <ele>120</ele>
        <time>2013-09-27T11:01:56Z</time>
      </trkpt>
      <trkpt lat="44.80972" lon="1.5598">
        <ele>120</ele>
        <time>2013-09-27T11:02:04Z</time>
      </trkpt>
      <trkpt lat="44.8098" lon="1.55986">
        <ele>120</ele>
        <time>2013-09-27T11:02:13Z</time>
      </trkpt>
      <trkpt lat="44.80988" lon="1.55994">
        <ele>120</ele>
        <time>2013-09-27T11:02:22Z</time>
      </trkpt>
      <trkpt lat="44.80997" lon="1.56002">
        <ele>120</ele>
        <time>2013-09-27T11:02:29Z</time>
      </trkpt>
      <trkpt lat="44.81005" lon="1.56011">
        <ele>120</ele>
        <time>2013-09-27T11:02:42Z</time>
      </trkpt>
      <trkpt lat="44.81013" lon="1.5602">
        <ele>120</ele>
        <time>2013-09-27T11:02:51Z</time>
      </trkpt>
      <trkpt lat="44.8102" lon="1.5603">
        <ele>120</ele>
        <time>2013-09-27T11:03:00Z</time>
      </trkpt>
      <trkpt lat="44.81028" lon="1.5604">
        <ele>120</ele>
        <time>2013-09-27T11:03:07Z</time>
      </trkpt>
      <trkpt lat="44.81036" lon="1.56051">
        <ele>113</ele>
        <time>2013-09-27T11:03:15Z</time>
      </trkpt>
      <trkpt lat="44.81043" lon="1.56059">
        <ele>119</ele>
        <time>2013-09-27T11:03:26Z</time>
      </trkpt>
      <trkpt lat="44.81051" lon="1.56067">
        <ele>119</ele>
        <time>2013-09-27T11:03:37Z</time>
      </trkpt>
      <trkpt lat="44.81059" lon="1.56075">
        <ele>124</ele>
        <time>2013-09-27T11:03:46Z</time>
      </trkpt>
      <trkpt lat="44.81067" lon="1.56082">
        <ele>124</ele>
        <time>2013-09-27T11:03:55Z</time>
      </trkpt>
      <trkpt lat="44.81076" lon="1.5609">
        <ele>124</ele>
        <time>2013-09-27T11:04:07Z</time>
      </trkpt>
      <trkpt lat="44.81082" lon="1.56099">
        <ele>124</ele>
        <time>2013-09-27T11:04:13Z</time>
      </trkpt>
      <trkpt lat="44.81089" lon="1.56109">
        <ele>117</ele>
        <time>2013-09-27T11:04:22Z</time>
      </trkpt>
      <trkpt lat="44.81092" lon="1.56122">
        <ele>117</ele>
        <time>2013-09-27T11:04:36Z</time>
      </trkpt>
      <trkpt lat="44.811" lon="1.56114">
        <ele>117</ele>
        <time>2013-09-27T11:06:18Z</time>
      </trkpt>
      <trkpt lat="44.81109" lon="1.56105">
        <ele>107</ele>
        <time>2013-09-27T11:06:32Z</time>
      </trkpt>
      <trkpt lat="44.81117" lon="1.56098">
        <ele>117</ele>
        <time>2013-09-27T11:06:41Z</time>
      </trkpt>
      <trkpt lat="44.81125" lon="1.5609">
        <ele>125</ele>
        <time>2013-09-27T11:06:53Z</time>
      </trkpt>
      <trkpt lat="44.81134" lon="1.56086">
        <ele>118</ele>
        <time>2013-09-27T11:07:07Z</time>
      </trkpt>
      <trkpt lat="44.81142" lon="1.56079">
        <ele>112</ele>
        <time>2013-09-27T11:07:17Z</time>
      </trkpt>
      <trkpt lat="44.81151" lon="1.56072">
        <ele>105</ele>
        <time>2013-09-27T11:07:26Z</time>
      </trkpt>
      <trkpt lat="44.81161" lon="1.56075">
        <ele>105</ele>
        <time>2013-09-27T11:07:37Z</time>
      </trkpt>
      <trkpt lat="44.81171" lon="1.56068">
        <ele>114</ele>
        <time>2013-09-27T11:08:02Z</time>
      </trkpt>
      <trkpt lat="44.81179" lon="1.56062">
        <ele>114</ele>
        <time>2013-09-27T11:08:11Z</time>
      </trkpt>
      <trkpt lat="44.81187" lon="1.56068">
        <ele>126</ele>
        <time>2013-09-27T11:09:16Z</time>
      </trkpt>
      <trkpt lat="44.81188" lon="1.56054">
        <ele>131</ele>
        <time>2013-09-27T11:09:24Z</time>
      </trkpt>
      <trkpt lat="44.81181" lon="1.56043">
        <ele>131</ele>
        <time>2013-09-27T11:09:30Z</time>
      </trkpt>
      <trkpt lat="44.81178" lon="1.5603">
        <ele>131</ele>
        <time>2013-09-27T11:09:41Z</time>
      </trkpt>
      <trkpt lat="44.81188" lon="1.5603">
        <ele>106</ele>
        <time>2013-09-27T11:10:26Z</time>
      </trkpt>
      <trkpt lat="44.81181" lon="1.56019">
        <ele>106</ele>
        <time>2013-09-27T11:10:38Z</time>
      </trkpt>
      <trkpt lat="44.81172" lon="1.56015">
        <ele>106</ele>
        <time>2013-09-27T11:10:57Z</time>
      </trkpt>
      <trkpt lat="44.8118" lon="1.56008">
        <ele>114</ele>
        <time>2013-09-27T11:11:21Z</time>
      </trkpt>
      <trkpt lat="44.81174" lon="1.55998">
        <ele>114</ele>
        <time>2013-09-27T11:12:00Z</time>
      </trkpt>
      <trkpt lat="44.81176" lon="1.5601">
        <ele>120</ele>
        <time>2013-09-27T11:12:24Z</time>
      </trkpt>
      <trkpt lat="44.81184" lon="1.56019">
        <ele>103</ele>
        <time>2013-09-27T11:12:56Z</time>
      </trkpt>
      <trkpt lat="44.8118" lon="1.56006">
        <ele>111</ele>
        <time>2013-09-27T11:15:01Z</time>
      </trkpt>
      <trkpt lat="44.81187" lon="1.56015">
        <ele>96</ele>
        <time>2013-09-27T11:18:26Z</time>
      </trkpt>
      <trkpt lat="44.81181" lon="1.56004">
        <ele>105</ele>
        <time>2013-09-27T11:30:51Z</time>
      </trkpt>
      <trkpt lat="44.81189" lon="1.56013">
        <ele>97</ele>
        <time>2013-09-27T11:35:43Z</time>
      </trkpt>
      <trkpt lat="44.81197" lon="1.56019">
        <ele>89</ele>
        <time>2013-09-27T11:42:14Z</time>
      </trkpt>
      <trkpt lat="44.81188" lon="1.56015">
        <ele>105</ele>
        <time>2013-09-27T11:43:44Z</time>
      </trkpt>
      <trkpt lat="44.8118" lon="1.56009">
        <ele>118</ele>
        <time>2013-09-27T11:48:56Z</time>
      </trkpt>
      <trkpt lat="44.81188" lon="1.56017">
        <ele>106</ele>
        <time>2013-09-27T11:49:25Z</time>
      </trkpt>
      <trkpt lat="44.8118" lon="1.56009">
        <ele>106</ele>
        <time>2013-09-27T12:00:14Z</time>
      </trkpt>
      <trkpt lat="44.81187" lon="1.56018">
        <ele>106</ele>
        <time>2013-09-27T12:07:05Z</time>
      </trkpt>
      <trkpt lat="44.81179" lon="1.56025">
        <ele>106</ele>
        <time>2013-09-27T12:27:35Z</time>
      </trkpt>
      <trkpt lat="44.81172" lon="1.56034">
        <ele>116</ele>
        <time>2013-09-27T12:28:27Z</time>
      </trkpt>
      <trkpt lat="44.81182" lon="1.56047">
        <ele>116</ele>
        <time>2013-09-27T12:28:43Z</time>
      </trkpt>
      <trkpt lat="44.81186" lon="1.56064">
        <ele>116</ele>
        <time>2013-09-27T12:28:48Z</time>
      </trkpt>
      <trkpt lat="44.81192" lon="1.56054">
        <ele>116</ele>
        <time>2013-09-27T12:29:20Z</time>
      </trkpt>
      <trkpt lat="44.81201" lon="1.56057">
        <ele>97</ele>
        <time>2013-09-27T12:30:40Z</time>
      </trkpt>
      <trkpt lat="44.8119" lon="1.56055">
        <ele>109</ele>
        <time>2013-09-27T12:31:06Z</time>
      </trkpt>
      <trkpt lat="44.8118" lon="1.56051">
        <ele>109</ele>
        <time>2013-09-27T12:31:10Z</time>
      </trkpt>
      <trkpt lat="44.81167" lon="1.56044">
        <ele>109</ele>
        <time>2013-09-27T12:31:12Z</time>
      </trkpt>
      <trkpt lat="44.81176" lon="1.5605">
        <ele>109</ele>
        <time>2013-09-27T12:31:18Z</time>
      </trkpt>
      <trkpt lat="44.8119" lon="1.56059">
        <ele>109</ele>
        <time>2013-09-27T12:31:22Z</time>
      </trkpt>
      <trkpt lat="44.81204" lon="1.56069">
        <ele>109</ele>
        <time>2013-09-27T12:31:24Z</time>
      </trkpt>
      <trkpt lat="44.81218" lon="1.56077">
        <ele>109</ele>
        <time>2013-09-27T12:31:26Z</time>
      </trkpt>
      <trkpt lat="44.81231" lon="1.56082">
        <ele>109</ele>
        <time>2013-09-27T12:31:28Z</time>
      </trkpt>
      <trkpt lat="44.81245" lon="1.5609">
        <ele>109</ele>
        <time>2013-09-27T12:31:30Z</time>
      </trkpt>
      <trkpt lat="44.81232" lon="1.56081">
        <ele>119</ele>
        <time>2013-09-27T12:31:36Z</time>
      </trkpt>
      <trkpt lat="44.81219" lon="1.5607">
        <ele>112</ele>
        <time>2013-09-27T12:31:42Z</time>
      </trkpt>
      <trkpt lat="44.81199" lon="1.56061">
        <ele>112</ele>
        <time>2013-09-27T12:31:49Z</time>
      </trkpt>
      <trkpt lat="44.8118" lon="1.56051">
        <ele>112</ele>
        <time>2013-09-27T12:31:51Z</time>
      </trkpt>
      <trkpt lat="44.81169" lon="1.56043">
        <ele>112</ele>
        <time>2013-09-27T12:31:54Z</time>
      </trkpt>
      <trkpt lat="44.81178" lon="1.56046">
        <ele>112</ele>
        <time>2013-09-27T12:32:02Z</time>
      </trkpt>
      <trkpt lat="44.81188" lon="1.5605">
        <ele>112</ele>
        <time>2013-09-27T12:32:33Z</time>
      </trkpt>
      <trkpt lat="44.81192" lon="1.56063">
        <ele>91</ele>
        <time>2013-09-27T12:33:01Z</time>
      </trkpt>
      <trkpt lat="44.81202" lon="1.56067">
        <ele>91</ele>
        <time>2013-09-27T12:33:09Z</time>
      </trkpt>
      <trkpt lat="44.81213" lon="1.56072">
        <ele>91</ele>
        <time>2013-09-27T12:33:15Z</time>
      </trkpt>
      <trkpt lat="44.81201" lon="1.56066">
        <ele>106</ele>
        <time>2013-09-27T12:33:26Z</time>
      </trkpt>
      <trkpt lat="44.81192" lon="1.5606">
        <ele>120</ele>
        <time>2013-09-27T12:33:45Z</time>
      </trkpt>
      <trkpt lat="44.81198" lon="1.56072">
        <ele>89</ele>
        <time>2013-09-27T12:35:09Z</time>
      </trkpt>
      <trkpt lat="44.81194" lon="1.5606">
        <ele>89</ele>
        <time>2013-09-27T12:35:16Z</time>
      </trkpt>
      <trkpt lat="44.81187" lon="1.56051">
        <ele>115</ele>
        <time>2013-09-27T12:35:28Z</time>
      </trkpt>
      <trkpt lat="44.81195" lon="1.5606">
        <ele>115</ele>
        <time>2013-09-27T12:35:52Z</time>
      </trkpt>
      <trkpt lat="44.81206" lon="1.56058">
        <ele>115</ele>
        <time>2013-09-27T12:35:55Z</time>
      </trkpt>
      <trkpt lat="44.81215" lon="1.56054">
        <ele>115</ele>
        <time>2013-09-27T12:35:59Z</time>
      </trkpt>
      <trkpt lat="44.81204" lon="1.5605">
        <ele>107</ele>
        <time>2013-09-27T12:36:12Z</time>
      </trkpt>
      <trkpt lat="44.81195" lon="1.56041">
        <ele>115</ele>
        <time>2013-09-27T12:36:16Z</time>
      </trkpt>
      <trkpt lat="44.81199" lon="1.56054">
        <ele>115</ele>
        <time>2013-09-27T12:36:28Z</time>
      </trkpt>
      <trkpt lat="44.81188" lon="1.56056">
        <ele>126</ele>
        <time>2013-09-27T12:36:43Z</time>
      </trkpt>
      <trkpt lat="44.81199" lon="1.5606">
        <ele>132</ele>
        <time>2013-09-27T12:37:22Z</time>
      </trkpt>
      <trkpt lat="44.8119" lon="1.56055">
        <ele>132</ele>
        <time>2013-09-27T12:37:55Z</time>
      </trkpt>
      <trkpt lat="44.8118" lon="1.56055">
        <ele>111</ele>
        <time>2013-09-27T12:38:30Z</time>
      </trkpt>
      <trkpt lat="44.8119" lon="1.56061">
        <ele>111</ele>
        <time>2013-09-27T12:39:33Z</time>
      </trkpt>
      <trkpt lat="44.81199" lon="1.56061">
        <ele>111</ele>
        <time>2013-09-27T12:39:38Z</time>
      </trkpt>
      <trkpt lat="44.81209" lon="1.56059">
        <ele>111</ele>
        <time>2013-09-27T12:39:45Z</time>
      </trkpt>
      <trkpt lat="44.812" lon="1.56063">
        <ele>121</ele>
        <time>2013-09-27T12:39:56Z</time>
      </trkpt>
      <trkpt lat="44.81191" lon="1.56068">
        <ele>121</ele>
        <time>2013-09-27T12:40:09Z</time>
      </trkpt>
      <trkpt lat="44.81201" lon="1.56071">
        <ele>99</ele>
        <time>2013-09-27T12:40:28Z</time>
      </trkpt>
      <trkpt lat="44.81193" lon="1.56064">
        <ele>85</ele>
        <time>2013-09-27T12:40:36Z</time>
      </trkpt>
      <trkpt lat="44.81186" lon="1.56054">
        <ele>105</ele>
        <time>2013-09-27T12:41:08Z</time>
      </trkpt>
      <trkpt lat="44.81195" lon="1.56053">
        <ele>116</ele>
        <time>2013-09-27T12:41:18Z</time>
      </trkpt>
      <trkpt lat="44.81186" lon="1.56054">
        <ele>124</ele>
        <time>2013-09-27T12:41:27Z</time>
      </trkpt>
      <trkpt lat="44.81193" lon="1.56066">
        <ele>124</ele>
        <time>2013-09-27T12:41:50Z</time>
      </trkpt>
      <trkpt lat="44.81201" lon="1.56076">
        <ele>124</ele>
        <time>2013-09-27T12:41:57Z</time>
      </trkpt>
      <trkpt lat="44.81211" lon="1.56077">
        <ele>124</ele>
        <time>2013-09-27T12:42:03Z</time>
      </trkpt>
      <trkpt lat="44.8122" lon="1.56082">
        <ele>113</ele>
        <time>2013-09-27T12:42:09Z</time>
      </trkpt>
      <trkpt lat="44.81205" lon="1.56072">
        <ele>124</ele>
        <time>2013-09-27T12:42:24Z</time>
      </trkpt>
      <trkpt lat="44.81197" lon="1.56063">
        <ele>118</ele>
        <time>2013-09-27T12:42:36Z</time>
      </trkpt>
      <trkpt lat="44.81187" lon="1.56061">
        <ele>118</ele>
        <time>2013-09-27T12:42:41Z</time>
      </trkpt>
      <trkpt lat="44.81178" lon="1.56054">
        <ele>118</ele>
        <time>2013-09-27T12:42:45Z</time>
      </trkpt>
      <trkpt lat="44.81187" lon="1.56054">
        <ele>112</ele>
        <time>2013-09-27T12:42:58Z</time>
      </trkpt>
      <trkpt lat="44.81187" lon="1.56068">
        <ele>120</ele>
        <time>2013-09-27T12:43:39Z</time>
      </trkpt>
      <trkpt lat="44.81194" lon="1.56076">
        <ele>131</ele>
        <time>2013-09-27T12:46:24Z</time>
      </trkpt>
      <trkpt lat="44.81178" lon="1.56067">
        <ele>146</ele>
        <time>2013-09-27T12:47:11Z</time>
      </trkpt>
      <trkpt lat="44.81189" lon="1.56074">
        <ele>146</ele>
        <time>2013-09-27T12:47:14Z</time>
      </trkpt>
      <trkpt lat="44.81224" lon="1.5614">
        <ele>146</ele>
        <time>2013-09-27T12:47:50Z</time>
      </trkpt>
      <trkpt lat="44.81213" lon="1.56127">
        <ele>146</ele>
        <time>2013-09-27T12:47:51Z</time>
      </trkpt>
      <trkpt lat="44.8121" lon="1.56102">
        <ele>146</ele>
        <time>2013-09-27T12:48:00Z</time>
      </trkpt>
      <trkpt lat="44.81199" lon="1.56072">
        <ele>146</ele>
        <time>2013-09-27T12:48:03Z</time>
      </trkpt>
      <trkpt lat="44.8119" lon="1.56051">
        <ele>158</ele>
        <time>2013-09-27T12:48:09Z</time>
      </trkpt>
      <trkpt lat="44.81184" lon="1.56037">
        <ele>158</ele>
        <time>2013-09-27T12:48:11Z</time>
      </trkpt>
      <trkpt lat="44.81185" lon="1.56019">
        <ele>158</ele>
        <time>2013-09-27T12:48:15Z</time>
      </trkpt>
      <trkpt lat="44.81191" lon="1.56032">
        <ele>158</ele>
        <time>2013-09-27T12:48:18Z</time>
      </trkpt>
      <trkpt lat="44.81205" lon="1.5605">
        <ele>158</ele>
        <time>2013-09-27T12:48:21Z</time>
      </trkpt>
      <trkpt lat="44.81215" lon="1.5606">
        <ele>158</ele>
        <time>2013-09-27T12:48:23Z</time>
      </trkpt>
      <trkpt lat="44.81227" lon="1.56063">
        <ele>158</ele>
        <time>2013-09-27T12:48:29Z</time>
      </trkpt>
      <trkpt lat="44.81225" lon="1.56076">
        <ele>152</ele>
        <time>2013-09-27T12:48:37Z</time>
      </trkpt>
      <trkpt lat="44.81227" lon="1.5609">
        <ele>152</ele>
        <time>2013-09-27T12:48:39Z</time>
      </trkpt>
      <trkpt lat="44.81218" lon="1.56107">
        <ele>146</ele>
        <time>2013-09-27T12:48:47Z</time>
      </trkpt>
      <trkpt lat="44.81208" lon="1.56094">
        <ele>146</ele>
        <time>2013-09-27T12:48:49Z</time>
      </trkpt>
      <trkpt lat="44.81201" lon="1.56081">
        <ele>146</ele>
        <time>2013-09-27T12:48:52Z</time>
      </trkpt>
      <trkpt lat="44.81211" lon="1.56084">
        <ele>132</ele>
        <time>2013-09-27T12:49:01Z</time>
      </trkpt>
      <trkpt lat="44.81203" lon="1.56075">
        <ele>126</ele>
        <time>2013-09-27T12:49:08Z</time>
      </trkpt>
      <trkpt lat="44.81217" lon="1.56093">
        <ele>126</ele>
        <time>2013-09-27T12:49:53Z</time>
      </trkpt>
      <trkpt lat="44.81205" lon="1.56083">
        <ele>126</ele>
        <time>2013-09-27T12:49:55Z</time>
      </trkpt>
      <trkpt lat="44.8121" lon="1.56071">
        <ele>120</ele>
        <time>2013-09-27T12:50:01Z</time>
      </trkpt>
      <trkpt lat="44.81201" lon="1.56075">
        <ele>111</ele>
        <time>2013-09-27T12:50:08Z</time>
      </trkpt>
      <trkpt lat="44.81187" lon="1.56058">
        <ele>111</ele>
        <time>2013-09-27T12:50:09Z</time>
      </trkpt>
      <trkpt lat="44.81181" lon="1.56038">
        <ele>118</ele>
        <time>2013-09-27T12:50:16Z</time>
      </trkpt>
      <trkpt lat="44.81187" lon="1.56054">
        <ele>118</ele>
        <time>2013-09-27T12:50:21Z</time>
      </trkpt>
      <trkpt lat="44.81171" lon="1.56044">
        <ele>118</ele>
        <time>2013-09-27T12:50:24Z</time>
      </trkpt>
      <trkpt lat="44.81184" lon="1.56052">
        <ele>118</ele>
        <time>2013-09-27T12:50:30Z</time>
      </trkpt>
      <trkpt lat="44.81203" lon="1.56061">
        <ele>118</ele>
        <time>2013-09-27T12:50:49Z</time>
      </trkpt>
      <trkpt lat="44.81195" lon="1.56074">
        <ele>118</ele>
        <time>2013-09-27T12:51:06Z</time>
      </trkpt>
      <trkpt lat="44.8119" lon="1.56056">
        <ele>118</ele>
        <time>2013-09-27T12:51:10Z</time>
      </trkpt>
      <trkpt lat="44.81184" lon="1.56045">
        <ele>108</ele>
        <time>2013-09-27T12:51:13Z</time>
      </trkpt>
      <trkpt lat="44.81192" lon="1.56054">
        <ele>103</ele>
        <time>2013-09-27T12:51:16Z</time>
      </trkpt>
      <trkpt lat="44.81182" lon="1.56046">
        <ele>103</ele>
        <time>2013-09-27T12:51:30Z</time>
      </trkpt>
      <trkpt lat="44.81176" lon="1.56035">
        <ele>103</ele>
        <time>2013-09-27T12:51:33Z</time>
      </trkpt>
      <trkpt lat="44.81169" lon="1.56051">
        <ele>103</ele>
        <time>2013-09-27T12:51:40Z</time>
      </trkpt>
      <trkpt lat="44.8116" lon="1.5604">
        <ele>103</ele>
        <time>2013-09-27T12:51:43Z</time>
      </trkpt>
      <trkpt lat="44.81164" lon="1.56059">
        <ele>103</ele>
        <time>2013-09-27T12:51:47Z</time>
      </trkpt>
      <trkpt lat="44.81161" lon="1.56039">
        <ele>112</ele>
        <time>2013-09-27T12:51:53Z</time>
      </trkpt>
      <trkpt lat="44.81172" lon="1.56034">
        <ele>112</ele>
        <time>2013-09-27T12:52:00Z</time>
      </trkpt>
      <trkpt lat="44.81183" lon="1.56045">
        <ele>112</ele>
        <time>2013-09-27T12:52:03Z</time>
      </trkpt>
      <trkpt lat="44.81192" lon="1.5606">
        <ele>112</ele>
        <time>2013-09-27T12:52:07Z</time>
      </trkpt>
      <trkpt lat="44.81188" lon="1.56046">
        <ele>127</ele>
        <time>2013-09-27T12:52:23Z</time>
      </trkpt>
      <trkpt lat="44.81189" lon="1.5603">
        <ele>133</ele>
        <time>2013-09-27T12:52:27Z</time>
      </trkpt>
      <trkpt lat="44.81199" lon="1.5604">
        <ele>133</ele>
        <time>2013-09-27T12:52:31Z</time>
      </trkpt>
      <trkpt lat="44.81208" lon="1.56058">
        <ele>133</ele>
        <time>2013-09-27T12:52:33Z</time>
      </trkpt>
      <trkpt lat="44.81208" lon="1.56092">
        <ele>133</ele>
        <time>2013-09-27T12:52:37Z</time>
      </trkpt>
      <trkpt lat="44.81194" lon="1.56067">
        <ele>148</ele>
        <time>2013-09-27T12:53:29Z</time>
      </trkpt>
      <trkpt lat="44.81178" lon="1.56041">
        <ele>148</ele>
        <time>2013-09-27T12:53:31Z</time>
      </trkpt>
      <trkpt lat="44.81172" lon="1.56052">
        <ele>108</ele>
        <time>2013-09-27T12:53:35Z</time>
      </trkpt>
      <trkpt lat="44.81161" lon="1.56041">
        <ele>108</ele>
        <time>2013-09-27T12:53:37Z</time>
      </trkpt>
      <trkpt lat="44.81153" lon="1.56072">
        <ele>88</ele>
        <time>2013-09-27T12:54:20Z</time>
      </trkpt>
      <trkpt lat="44.8117" lon="1.56076">
        <ele>88</ele>
        <time>2013-09-27T12:54:21Z</time>
      </trkpt>
      <trkpt lat="44.81165" lon="1.56053">
        <ele>94</ele>
        <time>2013-09-27T12:54:23Z</time>
      </trkpt>
      <trkpt lat="44.81159" lon="1.56042">
        <ele>101</ele>
        <time>2013-09-27T12:54:24Z</time>
      </trkpt>
      <trkpt lat="44.81153" lon="1.56031">
        <ele>129</ele>
        <time>2013-09-27T12:54:31Z</time>
      </trkpt>
      <trkpt lat="44.8116" lon="1.5604">
        <ele>129</ele>
        <time>2013-09-27T12:54:33Z</time>
      </trkpt>
      <trkpt lat="44.81169" lon="1.56043">
        <ele>129</ele>
        <time>2013-09-27T12:54:39Z</time>
      </trkpt>
      <trkpt lat="44.8118" lon="1.56049">
        <ele>129</ele>
        <time>2013-09-27T12:54:42Z</time>
      </trkpt>
      <trkpt lat="44.81181" lon="1.56036">
        <ele>116</ele>
        <time>2013-09-27T12:54:51Z</time>
      </trkpt>
      <trkpt lat="44.81183" lon="1.56049">
        <ele>116</ele>
        <time>2013-09-27T12:54:58Z</time>
      </trkpt>
      <trkpt lat="44.81175" lon="1.5604">
        <ele>116</ele>
        <time>2013-09-27T12:55:03Z</time>
      </trkpt>
      <trkpt lat="44.81164" lon="1.56028">
        <ele>116</ele>
        <time>2013-09-27T12:55:06Z</time>
      </trkpt>
      <trkpt lat="44.81157" lon="1.56017">
        <ele>121</ele>
        <time>2013-09-27T12:55:09Z</time>
      </trkpt>
      <trkpt lat="44.81152" lon="1.56005">
        <ele>121</ele>
        <time>2013-09-27T12:55:13Z</time>
      </trkpt>
      <trkpt lat="44.81145" lon="1.55996">
        <ele>121</ele>
        <time>2013-09-27T12:55:16Z</time>
      </trkpt>
      <trkpt lat="44.81152" lon="1.5601">
        <ele>121</ele>
        <time>2013-09-27T12:55:17Z</time>
      </trkpt>
      <trkpt lat="44.81169" lon="1.56022">
        <ele>121</ele>
        <time>2013-09-27T12:55:19Z</time>
      </trkpt>
      <trkpt lat="44.81181" lon="1.56035">
        <ele>121</ele>
        <time>2013-09-27T12:55:21Z</time>
      </trkpt>
      <trkpt lat="44.81187" lon="1.5605">
        <ele>121</ele>
        <time>2013-09-27T12:55:22Z</time>
      </trkpt>
      <trkpt lat="44.81193" lon="1.56063">
        <ele>121</ele>
        <time>2013-09-27T12:55:25Z</time>
      </trkpt>
      <trkpt lat="44.81192" lon="1.56049">
        <ele>121</ele>
        <time>2013-09-27T12:55:31Z</time>
      </trkpt>
      <trkpt lat="44.8119" lon="1.56033">
        <ele>121</ele>
        <time>2013-09-27T12:55:37Z</time>
      </trkpt>
      <trkpt lat="44.81181" lon="1.56027">
        <ele>109</ele>
        <time>2013-09-27T12:55:44Z</time>
      </trkpt>
      <trkpt lat="44.81172" lon="1.56022">
        <ele>109</ele>
        <time>2013-09-27T12:55:48Z</time>
      </trkpt>
      <trkpt lat="44.81179" lon="1.56034">
        <ele>109</ele>
        <time>2013-09-27T12:55:57Z</time>
      </trkpt>
      <trkpt lat="44.81181" lon="1.5602">
        <ele>118</ele>
        <time>2013-09-27T12:56:08Z</time>
      </trkpt>
      <trkpt lat="44.81185" lon="1.56033">
        <ele>118</ele>
        <time>2013-09-27T12:56:31Z</time>
      </trkpt>
      <trkpt lat="44.81197" lon="1.56035">
        <ele>103</ele>
        <time>2013-09-27T12:56:38Z</time>
      </trkpt>
      <trkpt lat="44.81207" lon="1.56039">
        <ele>103</ele>
        <time>2013-09-27T12:56:42Z</time>
      </trkpt>
      <trkpt lat="44.81201" lon="1.56052">
        <ele>111</ele>
        <time>2013-09-27T12:56:48Z</time>
      </trkpt>
      <trkpt lat="44.81187" lon="1.56058">
        <ele>111</ele>
        <time>2013-09-27T12:56:56Z</time>
      </trkpt>
      <trkpt lat="44.81194" lon="1.56044">
        <ele>111</ele>
        <time>2013-09-27T12:56:59Z</time>
      </trkpt>
      <trkpt lat="44.81201" lon="1.56054">
        <ele>111</ele>
        <time>2013-09-27T12:57:20Z</time>
      </trkpt>
      <trkpt lat="44.81192" lon="1.56048">
        <ele>111</ele>
        <time>2013-09-27T12:57:26Z</time>
      </trkpt>
      <trkpt lat="44.81184" lon="1.5603">
        <ele>111</ele>
        <time>2013-09-27T12:57:33Z</time>
      </trkpt>
      <trkpt lat="44.81183" lon="1.56045">
        <ele>111</ele>
        <time>2013-09-27T12:57:42Z</time>
      </trkpt>
      <trkpt lat="44.8118" lon="1.5603">
        <ele>103</ele>
        <time>2013-09-27T12:58:02Z</time>
      </trkpt>
      <trkpt lat="44.81172" lon="1.56024">
        <ele>103</ele>
        <time>2013-09-27T12:58:06Z</time>
      </trkpt>
      <trkpt lat="44.81163" lon="1.56017">
        <ele>103</ele>
        <time>2013-09-27T12:58:09Z</time>
      </trkpt>
      <trkpt lat="44.81155" lon="1.56025">
        <ele>109</ele>
        <time>2013-09-27T12:58:14Z</time>
      </trkpt>
      <trkpt lat="44.81172" lon="1.56045">
        <ele>109</ele>
        <time>2013-09-27T12:58:20Z</time>
      </trkpt>
      <trkpt lat="44.81183" lon="1.56054">
        <ele>116</ele>
        <time>2013-09-27T12:58:22Z</time>
      </trkpt>
      <trkpt lat="44.8119" lon="1.56063">
        <ele>116</ele>
        <time>2013-09-27T12:58:25Z</time>
      </trkpt>
      <trkpt lat="44.812" lon="1.56063">
        <ele>116</ele>
        <time>2013-09-27T12:58:29Z</time>
      </trkpt>
      <trkpt lat="44.8119" lon="1.56059">
        <ele>111</ele>
        <time>2013-09-27T12:58:40Z</time>
      </trkpt>
      <trkpt lat="44.81199" lon="1.56061">
        <ele>111</ele>
        <time>2013-09-27T12:58:45Z</time>
      </trkpt>
      <trkpt lat="44.81187" lon="1.56058">
        <ele>122</ele>
        <time>2013-09-27T12:58:54Z</time>
      </trkpt>
      <trkpt lat="44.81197" lon="1.5606">
        <ele>112</ele>
        <time>2013-09-27T12:59:03Z</time>
      </trkpt>
      <trkpt lat="44.81219" lon="1.5608">
        <ele>112</ele>
        <time>2013-09-27T12:59:08Z</time>
      </trkpt>
      <trkpt lat="44.81207" lon="1.56072">
        <ele>120</ele>
        <time>2013-09-27T12:59:14Z</time>
      </trkpt>
      <trkpt lat="44.81199" lon="1.56063">
        <ele>120</ele>
        <time>2013-09-27T12:59:17Z</time>
      </trkpt>
      <trkpt lat="44.81189" lon="1.56051">
        <ele>126</ele>
        <time>2013-09-27T12:59:50Z</time>
      </trkpt>
      <trkpt lat="44.81183" lon="1.5604">
        <ele>115</ele>
        <time>2013-09-27T13:00:00Z</time>
      </trkpt>
      <trkpt lat="44.81174" lon="1.56034">
        <ele>110</ele>
        <time>2013-09-27T13:00:12Z</time>
      </trkpt>
      <trkpt lat="44.8118" lon="1.56047">
        <ele>110</ele>
        <time>2013-09-27T13:00:16Z</time>
      </trkpt>
      <trkpt lat="44.81177" lon="1.56035">
        <ele>91</ele>
        <time>2013-09-27T13:00:29Z</time>
      </trkpt>
      <trkpt lat="44.81178" lon="1.56073">
        <ele>78</ele>
        <time>2013-09-27T13:00:58Z</time>
      </trkpt>
      <trkpt lat="44.81188" lon="1.56073">
        <ele>78</ele>
        <time>2013-09-27T13:00:59Z</time>
      </trkpt>
      <trkpt lat="44.81199" lon="1.56064">
        <ele>78</ele>
        <time>2013-09-27T13:01:03Z</time>
      </trkpt>
      <trkpt lat="44.81199" lon="1.56047">
        <ele>94</ele>
        <time>2013-09-27T13:01:05Z</time>
      </trkpt>
      <trkpt lat="44.8119" lon="1.56043">
        <ele>94</ele>
        <time>2013-09-27T13:01:07Z</time>
      </trkpt>
      <trkpt lat="44.81178" lon="1.56045">
        <ele>94</ele>
        <time>2013-09-27T13:01:12Z</time>
      </trkpt>
      <trkpt lat="44.81187" lon="1.5605">
        <ele>114</ele>
        <time>2013-09-27T13:01:23Z</time>
      </trkpt>
      <trkpt lat="44.81194" lon="1.56063">
        <ele>119</ele>
        <time>2013-09-27T13:01:26Z</time>
      </trkpt>
      <trkpt lat="44.81172" lon="1.56081">
        <ele>119</ele>
        <time>2013-09-27T13:01:47Z</time>
      </trkpt>
      <trkpt lat="44.80981" lon="1.55992">
        <ele>119</ele>
        <time>2013-09-27T13:02:20Z</time>
      </trkpt>
      <trkpt lat="44.81084" lon="1.5603">
        <ele>98</ele>
        <time>2013-09-27T13:03:05Z</time>
      </trkpt>
      <trkpt lat="44.8105" lon="1.55988">
        <ele>98</ele>
        <time>2013-09-27T13:03:17Z</time>
      </trkpt>
      <trkpt lat="44.8106" lon="1.55996">
        <ele>98</ele>
        <time>2013-09-27T13:03:18Z</time>
      </trkpt>
      <trkpt lat="44.81071" lon="1.56007">
        <ele>98</ele>
        <time>2013-09-27T13:03:19Z</time>
      </trkpt>
      <trkpt lat="44.81086" lon="1.56021">
        <ele>98</ele>
        <time>2013-09-27T13:03:21Z</time>
      </trkpt>
      <trkpt lat="44.81149" lon="1.56063">
        <ele>103</ele>
        <time>2013-09-27T13:03:42Z</time>
      </trkpt>
      <trkpt lat="44.8116" lon="1.56069">
        <ele>103</ele>
        <time>2013-09-27T13:03:44Z</time>
      </trkpt>
      <trkpt lat="44.81179" lon="1.56055">
        <ele>103</ele>
        <time>2013-09-27T13:03:54Z</time>
      </trkpt>
      <trkpt lat="44.81169" lon="1.56052">
        <ele>103</ele>
        <time>2013-09-27T13:03:59Z</time>
      </trkpt>
      <trkpt lat="44.81168" lon="1.56037">
        <ele>103</ele>
        <time>2013-09-27T13:04:00Z</time>
      </trkpt>
      <trkpt lat="44.81164" lon="1.5602">
        <ele>91</ele>
        <time>2013-09-27T13:04:02Z</time>
      </trkpt>
      <trkpt lat="44.81172" lon="1.56029">
        <ele>102</ele>
        <time>2013-09-27T13:04:05Z</time>
      </trkpt>
      <trkpt lat="44.81179" lon="1.56039">
        <ele>108</ele>
        <time>2013-09-27T13:04:11Z</time>
      </trkpt>
      <trkpt lat="44.81185" lon="1.56028">
        <ele>108</ele>
        <time>2013-09-27T13:04:32Z</time>
      </trkpt>
      <trkpt lat="44.81182" lon="1.56016">
        <ele>115</ele>
        <time>2013-09-27T13:05:44Z</time>
      </trkpt>
      <trkpt lat="44.81185" lon="1.56028">
        <ele>108</ele>
        <time>2013-09-27T13:08:28Z</time>
      </trkpt>
      <trkpt lat="44.81178" lon="1.56039">
        <ele>108</ele>
        <time>2013-09-27T13:09:45Z</time>
      </trkpt>
      <trkpt lat="44.81166" lon="1.56031">
        <ele>108</ele>
        <time>2013-09-27T13:09:49Z</time>
      </trkpt>
      <trkpt lat="44.81158" lon="1.56015">
        <ele>113</ele>
        <time>2013-09-27T13:09:56Z</time>
      </trkpt>
      <trkpt lat="44.81153" lon="1.56002">
        <ele>113</ele>
        <time>2013-09-27T13:10:00Z</time>
      </trkpt>
      <trkpt lat="44.81177" lon="1.56029">
        <ele>113</ele>
        <time>2013-09-27T13:10:13Z</time>
      </trkpt>
      <trkpt lat="44.81189" lon="1.56046">
        <ele>113</ele>
        <time>2013-09-27T13:10:15Z</time>
      </trkpt>
      <trkpt lat="44.81198" lon="1.56059">
        <ele>113</ele>
        <time>2013-09-27T13:10:17Z</time>
      </trkpt>
      <trkpt lat="44.81188" lon="1.56057">
        <ele>113</ele>
        <time>2013-09-27T13:10:23Z</time>
      </trkpt>
      <trkpt lat="44.81178" lon="1.56054">
        <ele>113</ele>
        <time>2013-09-27T13:10:35Z</time>
      </trkpt>
      <trkpt lat="44.81172" lon="1.56065">
        <ele>113</ele>
        <time>2013-09-27T13:10:58Z</time>
      </trkpt>
      <trkpt lat="44.81163" lon="1.5606">
        <ele>113</ele>
        <time>2013-09-27T13:11:06Z</time>
      </trkpt>
      <trkpt lat="44.81158" lon="1.56072">
        <ele>113</ele>
        <time>2013-09-27T13:11:24Z</time>
      </trkpt>
      <trkpt lat="44.8118" lon="1.56104">
        <ele>113</ele>
        <time>2013-09-27T13:12:19Z</time>
      </trkpt>
      <trkpt lat="44.8119" lon="1.56106">
        <ele>108</ele>
        <time>2013-09-27T13:12:20Z</time>
      </trkpt>
      <trkpt lat="44.812" lon="1.56109">
        <ele>108</ele>
        <time>2013-09-27T13:12:23Z</time>
      </trkpt>
      <trkpt lat="44.81208" lon="1.56116">
        <ele>102</ele>
        <time>2013-09-27T13:12:30Z</time>
      </trkpt>
      <trkpt lat="44.8122" lon="1.56106">
        <ele>93</ele>
        <time>2013-09-27T13:13:15Z</time>
      </trkpt>
      <trkpt lat="44.81207" lon="1.56101">
        <ele>93</ele>
        <time>2013-09-27T13:13:16Z</time>
      </trkpt>
      <trkpt lat="44.81197" lon="1.56098">
        <ele>93</ele>
        <time>2013-09-27T13:13:18Z</time>
      </trkpt>
      <trkpt lat="44.81186" lon="1.56091">
        <ele>101</ele>
        <time>2013-09-27T13:13:19Z</time>
      </trkpt>
      <trkpt lat="44.81172" lon="1.56081">
        <ele>106</ele>
        <time>2013-09-27T13:13:21Z</time>
      </trkpt>
      <trkpt lat="44.81162" lon="1.5608">
        <ele>106</ele>
        <time>2013-09-27T13:13:24Z</time>
      </trkpt>
      <trkpt lat="44.8115" lon="1.56079">
        <ele>106</ele>
        <time>2013-09-27T13:13:30Z</time>
      </trkpt>
      <trkpt lat="44.81139" lon="1.5609">
        <ele>106</ele>
        <time>2013-09-27T13:13:33Z</time>
      </trkpt>
      <trkpt lat="44.8113" lon="1.56099">
        <ele>106</ele>
        <time>2013-09-27T13:13:36Z</time>
      </trkpt>
      <trkpt lat="44.81119" lon="1.56106">
        <ele>106</ele>
        <time>2013-09-27T13:13:39Z</time>
      </trkpt>
      <trkpt lat="44.81109" lon="1.56111">
        <ele>111</ele>
        <time>2013-09-27T13:13:43Z</time>
      </trkpt>
      <trkpt lat="44.81101" lon="1.56105">
        <ele>104</ele>
        <time>2013-09-27T13:13:55Z</time>
      </trkpt>
      <trkpt lat="44.81094" lon="1.56114">
        <ele>104</ele>
        <time>2013-09-27T13:14:38Z</time>
      </trkpt>
      <trkpt lat="44.81103" lon="1.56109">
        <ele>104</ele>
        <time>2013-09-27T13:14:55Z</time>
      </trkpt>
      <trkpt lat="44.81094" lon="1.56106">
        <ele>104</ele>
        <time>2013-09-27T13:15:13Z</time>
      </trkpt>
      <trkpt lat="44.81086" lon="1.56099">
        <ele>96</ele>
        <time>2013-09-27T13:18:00Z</time>
      </trkpt>
      <trkpt lat="44.8107" lon="1.56083">
        <ele>96</ele>
        <time>2013-09-27T13:18:04Z</time>
      </trkpt>
      <trkpt lat="44.81061" lon="1.56077">
        <ele>96</ele>
        <time>2013-09-27T13:18:05Z</time>
      </trkpt>
      <trkpt lat="44.81046" lon="1.56062">
        <ele>96</ele>
        <time>2013-09-27T13:18:07Z</time>
      </trkpt>
      <trkpt lat="44.81032" lon="1.56047">
        <ele>96</ele>
        <time>2013-09-27T13:18:09Z</time>
      </trkpt>
      <trkpt lat="44.81013" lon="1.56025">
        <ele>101</ele>
        <time>2013-09-27T13:18:12Z</time>
      </trkpt>
      <trkpt lat="44.80999" lon="1.56011">
        <ele>101</ele>
        <time>2013-09-27T13:18:14Z</time>
      </trkpt>
      <trkpt lat="44.80986" lon="1.55998">
        <ele>101</ele>
        <time>2013-09-27T13:18:16Z</time>
      </trkpt>
      <trkpt lat="44.80962" lon="1.55978">
        <ele>106</ele>
        <time>2013-09-27T13:18:20Z</time>
      </trkpt>
      <trkpt lat="44.80948" lon="1.55976">
        <ele>106</ele>
        <time>2013-09-27T13:18:23Z</time>
      </trkpt>
      <trkpt lat="44.8092" lon="1.55993">
        <ele>112</ele>
        <time>2013-09-27T13:18:27Z</time>
      </trkpt>
      <trkpt lat="44.80912" lon="1.56006">
        <ele>112</ele>
        <time>2013-09-27T13:18:28Z</time>
      </trkpt>
      <trkpt lat="44.80906" lon="1.56018">
        <ele>112</ele>
        <time>2013-09-27T13:18:29Z</time>
      </trkpt>
      <trkpt lat="44.80903" lon="1.56031">
        <ele>112</ele>
        <time>2013-09-27T13:18:30Z</time>
      </trkpt>
      <trkpt lat="44.80903" lon="1.56054">
        <ele>112</ele>
        <time>2013-09-27T13:18:32Z</time>
      </trkpt>
      <trkpt lat="44.80903" lon="1.56067">
        <ele>112</ele>
        <time>2013-09-27T13:18:33Z</time>
      </trkpt>
      <trkpt lat="44.80901" lon="1.5609">
        <ele>112</ele>
        <time>2013-09-27T13:18:35Z</time>
      </trkpt>
      <trkpt lat="44.80897" lon="1.56113">
        <ele>112</ele>
        <time>2013-09-27T13:18:37Z</time>
      </trkpt>
      <trkpt lat="44.8089" lon="1.56134">
        <ele>112</ele>
        <time>2013-09-27T13:18:39Z</time>
      </trkpt>
      <trkpt lat="44.80891" lon="1.56158">
        <ele>112</ele>
        <time>2013-09-27T13:18:41Z</time>
      </trkpt>
      <trkpt lat="44.80892" lon="1.56179">
        <ele>112</ele>
        <time>2013-09-27T13:18:43Z</time>
      </trkpt>
      <trkpt lat="44.80896" lon="1.56201">
        <ele>112</ele>
        <time>2013-09-27T13:18:45Z</time>
      </trkpt>
      <trkpt lat="44.80898" lon="1.56223">
        <ele>112</ele>
        <time>2013-09-27T13:18:47Z</time>
      </trkpt>
      <trkpt lat="44.80897" lon="1.56237">
        <ele>112</ele>
        <time>2013-09-27T13:18:48Z</time>
      </trkpt>
      <trkpt lat="44.80894" lon="1.5625">
        <ele>112</ele>
        <time>2013-09-27T13:18:49Z</time>
      </trkpt>
      <trkpt lat="44.8089" lon="1.56273">
        <ele>112</ele>
        <time>2013-09-27T13:18:51Z</time>
      </trkpt>
      <trkpt lat="44.8088" lon="1.56315">
        <ele>112</ele>
        <time>2013-09-27T13:18:55Z</time>
      </trkpt>
      <trkpt lat="44.80871" lon="1.56318">
        <ele>112</ele>
        <time>2013-09-27T13:18:56Z</time>
      </trkpt>
      <trkpt lat="44.80862" lon="1.56326">
        <ele>112</ele>
        <time>2013-09-27T13:18:57Z</time>
      </trkpt>
      <trkpt lat="44.8084" lon="1.56349">
        <ele>112</ele>
        <time>2013-09-27T13:19:00Z</time>
      </trkpt>
      <trkpt lat="44.8083" lon="1.56355">
        <ele>112</ele>
        <time>2013-09-27T13:19:01Z</time>
      </trkpt>
      <trkpt lat="44.80807" lon="1.56348">
        <ele>112</ele>
        <time>2013-09-27T13:19:03Z</time>
      </trkpt>
      <trkpt lat="44.80795" lon="1.56341">
        <ele>112</ele>
        <time>2013-09-27T13:19:04Z</time>
      </trkpt>
      <trkpt lat="44.8077" lon="1.56329">
        <ele>112</ele>
        <time>2013-09-27T13:19:07Z</time>
      </trkpt>
      <trkpt lat="44.80761" lon="1.56321">
        <ele>112</ele>
        <time>2013-09-27T13:19:08Z</time>
      </trkpt>
      <trkpt lat="44.8075" lon="1.56312">
        <ele>112</ele>
        <time>2013-09-27T13:19:09Z</time>
      </trkpt>
      <trkpt lat="44.80741" lon="1.56305">
        <ele>112</ele>
        <time>2013-09-27T13:19:10Z</time>
      </trkpt>
      <trkpt lat="44.80727" lon="1.5629">
        <ele>112</ele>
        <time>2013-09-27T13:19:12Z</time>
      </trkpt>
      <trkpt lat="44.80717" lon="1.56274">
        <ele>112</ele>
        <time>2013-09-27T13:19:14Z</time>
      </trkpt>
      <trkpt lat="44.80709" lon="1.56265">
        <ele>112</ele>
        <time>2013-09-27T13:19:15Z</time>
      </trkpt>
      <trkpt lat="44.80695" lon="1.56246">
        <ele>106</ele>
        <time>2013-09-27T13:19:17Z</time>
      </trkpt>
      <trkpt lat="44.80688" lon="1.56234">
        <ele>106</ele>
        <time>2013-09-27T13:19:18Z</time>
      </trkpt>
      <trkpt lat="44.80674" lon="1.56188">
        <ele>106</ele>
        <time>2013-09-27T13:19:22Z</time>
      </trkpt>
      <trkpt lat="44.80674" lon="1.56173">
        <ele>106</ele>
        <time>2013-09-27T13:19:23Z</time>
      </trkpt>
      <trkpt lat="44.80673" lon="1.5616">
        <ele>106</ele>
        <time>2013-09-27T13:19:24Z</time>
      </trkpt>
      <trkpt lat="44.80671" lon="1.56146">
        <ele>112</ele>
        <time>2013-09-27T13:19:25Z</time>
      </trkpt>
      <trkpt lat="44.8067" lon="1.56132">
        <ele>112</ele>
        <time>2013-09-27T13:19:26Z</time>
      </trkpt>
      <trkpt lat="44.80665" lon="1.56105">
        <ele>112</ele>
        <time>2013-09-27T13:19:28Z</time>
      </trkpt>
      <trkpt lat="44.80662" lon="1.56092">
        <ele>112</ele>
        <time>2013-09-27T13:19:29Z</time>
      </trkpt>
      <trkpt lat="44.80658" lon="1.5608">
        <ele>118</ele>
        <time>2013-09-27T13:19:30Z</time>
      </trkpt>
      <trkpt lat="44.80644" lon="1.56044">
        <ele>118</ele>
        <time>2013-09-27T13:19:33Z</time>
      </trkpt>
      <trkpt lat="44.80637" lon="1.56035">
        <ele>118</ele>
        <time>2013-09-27T13:19:34Z</time>
      </trkpt>
      <trkpt lat="44.80626" lon="1.56027">
        <ele>118</ele>
        <time>2013-09-27T13:19:35Z</time>
      </trkpt>
      <trkpt lat="44.8062" lon="1.56016">
        <ele>118</ele>
        <time>2013-09-27T13:19:36Z</time>
      </trkpt>
      <trkpt lat="44.80612" lon="1.56006">
        <ele>118</ele>
        <time>2013-09-27T13:19:37Z</time>
      </trkpt>
      <trkpt lat="44.80603" lon="1.55994">
        <ele>118</ele>
        <time>2013-09-27T13:19:38Z</time>
      </trkpt>
      <trkpt lat="44.80594" lon="1.55983">
        <ele>118</ele>
        <time>2013-09-27T13:19:39Z</time>
      </trkpt>
      <trkpt lat="44.80586" lon="1.55971">
        <ele>118</ele>
        <time>2013-09-27T13:19:40Z</time>
      </trkpt>
      <trkpt lat="44.80577" lon="1.55957">
        <ele>118</ele>
        <time>2013-09-27T13:19:41Z</time>
      </trkpt>
      <trkpt lat="44.80568" lon="1.55944">
        <ele>118</ele>
        <time>2013-09-27T13:19:42Z</time>
      </trkpt>
      <trkpt lat="44.8056" lon="1.55931">
        <ele>118</ele>
        <time>2013-09-27T13:19:43Z</time>
      </trkpt>
      <trkpt lat="44.80553" lon="1.55921">
        <ele>118</ele>
        <time>2013-09-27T13:19:44Z</time>
      </trkpt>
      <trkpt lat="44.80532" lon="1.55881">
        <ele>118</ele>
        <time>2013-09-27T13:19:47Z</time>
      </trkpt>
      <trkpt lat="44.80527" lon="1.55869">
        <ele>118</ele>
        <time>2013-09-27T13:19:48Z</time>
      </trkpt>
      <trkpt lat="44.80518" lon="1.55858">
        <ele>118</ele>
        <time>2013-09-27T13:19:49Z</time>
      </trkpt>
      <trkpt lat="44.80508" lon="1.55848">
        <ele>118</ele>
        <time>2013-09-27T13:19:50Z</time>
      </trkpt>
      <trkpt lat="44.805" lon="1.55838">
        <ele>118</ele>
        <time>2013-09-27T13:19:51Z</time>
      </trkpt>
      <trkpt lat="44.80492" lon="1.55827">
        <ele>118</ele>
        <time>2013-09-27T13:19:52Z</time>
      </trkpt>
      <trkpt lat="44.80483" lon="1.55816">
        <ele>112</ele>
        <time>2013-09-27T13:19:53Z</time>
      </trkpt>
      <trkpt lat="44.80474" lon="1.55808">
        <ele>112</ele>
        <time>2013-09-27T13:19:54Z</time>
      </trkpt>
      <trkpt lat="44.80466" lon="1.55798">
        <ele>112</ele>
        <time>2013-09-27T13:19:55Z</time>
      </trkpt>
      <trkpt lat="44.80458" lon="1.55792">
        <ele>112</ele>
        <time>2013-09-27T13:19:56Z</time>
      </trkpt>
      <trkpt lat="44.80445" lon="1.55778">
        <ele>112</ele>
        <time>2013-09-27T13:19:58Z</time>
      </trkpt>
      <trkpt lat="44.80436" lon="1.55771">
        <ele>112</ele>
        <time>2013-09-27T13:20:00Z</time>
      </trkpt>
      <trkpt lat="44.80427" lon="1.55765">
        <ele>112</ele>
        <time>2013-09-27T13:20:02Z</time>
      </trkpt>
      <trkpt lat="44.80418" lon="1.5576">
        <ele>106</ele>
        <time>2013-09-27T13:20:12Z</time>
      </trkpt>
      <trkpt lat="44.80406" lon="1.55763">
        <ele>106</ele>
        <time>2013-09-27T13:20:24Z</time>
      </trkpt>
      <trkpt lat="44.80392" lon="1.55764">
        <ele>106</ele>
        <time>2013-09-27T13:20:26Z</time>
      </trkpt>
      <trkpt lat="44.80376" lon="1.5578">
        <ele>106</ele>
        <time>2013-09-27T13:20:28Z</time>
      </trkpt>
      <trkpt lat="44.80342" lon="1.55817">
        <ele>106</ele>
        <time>2013-09-27T13:20:32Z</time>
      </trkpt>
      <trkpt lat="44.80316" lon="1.55846">
        <ele>115</ele>
        <time>2013-09-27T13:20:34Z</time>
      </trkpt>
      <trkpt lat="44.803" lon="1.55856">
        <ele>115</ele>
        <time>2013-09-27T13:20:35Z</time>
      </trkpt>
      <trkpt lat="44.80245" lon="1.55903">
        <ele>115</ele>
        <time>2013-09-27T13:20:39Z</time>
      </trkpt>
      <trkpt lat="44.80231" lon="1.55915">
        <ele>115</ele>
        <time>2013-09-27T13:20:40Z</time>
      </trkpt>
      <trkpt lat="44.80216" lon="1.55926">
        <ele>120</ele>
        <time>2013-09-27T13:20:41Z</time>
      </trkpt>
      <trkpt lat="44.80203" lon="1.55937">
        <ele>120</ele>
        <time>2013-09-27T13:20:42Z</time>
      </trkpt>
      <trkpt lat="44.8014" lon="1.55974">
        <ele>120</ele>
        <time>2013-09-27T13:20:46Z</time>
      </trkpt>
      <trkpt lat="44.80117" lon="1.55977">
        <ele>120</ele>
        <time>2013-09-27T13:20:47Z</time>
      </trkpt>
      <trkpt lat="44.80101" lon="1.55984">
        <ele>120</ele>
        <time>2013-09-27T13:20:48Z</time>
      </trkpt>
      <trkpt lat="44.80087" lon="1.55989">
        <ele>120</ele>
        <time>2013-09-27T13:20:49Z</time>
      </trkpt>
      <trkpt lat="44.80075" lon="1.55992">
        <ele>120</ele>
        <time>2013-09-27T13:20:50Z</time>
      </trkpt>
      <trkpt lat="44.80066" lon="1.55997">
        <ele>120</ele>
        <time>2013-09-27T13:20:51Z</time>
      </trkpt>
      <trkpt lat="44.80055" lon="1.56004">
        <ele>120</ele>
        <time>2013-09-27T13:20:52Z</time>
      </trkpt>
      <trkpt lat="44.80046" lon="1.56012">
        <ele>120</ele>
        <time>2013-09-27T13:20:53Z</time>
      </trkpt>
      <trkpt lat="44.80037" lon="1.56021">
        <ele>120</ele>
        <time>2013-09-27T13:20:54Z</time>
      </trkpt>
      <trkpt lat="44.80032" lon="1.56035">
        <ele>120</ele>
        <time>2013-09-27T13:20:55Z</time>
      </trkpt>
      <trkpt lat="44.8003" lon="1.56051">
        <ele>120</ele>
        <time>2013-09-27T13:20:56Z</time>
      </trkpt>
      <trkpt lat="44.80026" lon="1.56065">
        <ele>120</ele>
        <time>2013-09-27T13:20:57Z</time>
      </trkpt>
      <trkpt lat="44.80024" lon="1.56082">
        <ele>120</ele>
        <time>2013-09-27T13:20:58Z</time>
      </trkpt>
      <trkpt lat="44.80021" lon="1.56099">
        <ele>120</ele>
        <time>2013-09-27T13:20:59Z</time>
      </trkpt>
      <trkpt lat="44.80023" lon="1.56116">
        <ele>120</ele>
        <time>2013-09-27T13:21:00Z</time>
      </trkpt>
      <trkpt lat="44.80025" lon="1.56133">
        <ele>120</ele>
        <time>2013-09-27T13:21:01Z</time>
      </trkpt>
      <trkpt lat="44.80032" lon="1.56149">
        <ele>120</ele>
        <time>2013-09-27T13:21:02Z</time>
      </trkpt>
      <trkpt lat="44.80036" lon="1.56161">
        <ele>120</ele>
        <time>2013-09-27T13:21:03Z</time>
      </trkpt>
      <trkpt lat="44.80042" lon="1.56175">
        <ele>120</ele>
        <time>2013-09-27T13:21:04Z</time>
      </trkpt>
      <trkpt lat="44.80047" lon="1.5619">
        <ele>120</ele>
        <time>2013-09-27T13:21:05Z</time>
      </trkpt>
      <trkpt lat="44.80053" lon="1.56204">
        <ele>120</ele>
        <time>2013-09-27T13:21:06Z</time>
      </trkpt>
      <trkpt lat="44.80065" lon="1.56215">
        <ele>120</ele>
        <time>2013-09-27T13:21:07Z</time>
      </trkpt>
      <trkpt lat="44.80074" lon="1.5623">
        <ele>120</ele>
        <time>2013-09-27T13:21:08Z</time>
      </trkpt>
      <trkpt lat="44.80085" lon="1.56248">
        <ele>120</ele>
        <time>2013-09-27T13:21:09Z</time>
      </trkpt>
      <trkpt lat="44.80108" lon="1.56279">
        <ele>120</ele>
        <time>2013-09-27T13:21:11Z</time>
      </trkpt>
      <trkpt lat="44.80117" lon="1.56301">
        <ele>120</ele>
        <time>2013-09-27T13:21:12Z</time>
      </trkpt>
      <trkpt lat="44.80126" lon="1.56318">
        <ele>120</ele>
        <time>2013-09-27T13:21:13Z</time>
      </trkpt>
      <trkpt lat="44.80144" lon="1.56334">
        <ele>120</ele>
        <time>2013-09-27T13:21:14Z</time>
      </trkpt>
      <trkpt lat="44.80151" lon="1.56352">
        <ele>120</ele>
        <time>2013-09-27T13:21:15Z</time>
      </trkpt>
      <trkpt lat="44.80154" lon="1.56371">
        <ele>120</ele>
        <time>2013-09-27T13:21:16Z</time>
      </trkpt>
      <trkpt lat="44.80156" lon="1.56389">
        <ele>120</ele>
        <time>2013-09-27T13:21:17Z</time>
      </trkpt>
      <trkpt lat="44.80158" lon="1.56404">
        <ele>120</ele>
        <time>2013-09-27T13:21:18Z</time>
      </trkpt>
      <trkpt lat="44.80159" lon="1.56419">
        <ele>120</ele>
        <time>2013-09-27T13:21:19Z</time>
      </trkpt>
      <trkpt lat="44.80164" lon="1.56431">
        <ele>120</ele>
        <time>2013-09-27T13:21:20Z</time>
      </trkpt>
      <trkpt lat="44.80177" lon="1.56441">
        <ele>115</ele>
        <time>2013-09-27T13:21:22Z</time>
      </trkpt>
      <trkpt lat="44.80192" lon="1.56442">
        <ele>115</ele>
        <time>2013-09-27T13:21:24Z</time>
      </trkpt>
      <trkpt lat="44.80207" lon="1.56434">
        <ele>115</ele>
        <time>2013-09-27T13:21:25Z</time>
      </trkpt>
      <trkpt lat="44.80222" lon="1.56431">
        <ele>115</ele>
        <time>2013-09-27T13:21:26Z</time>
      </trkpt>
      <trkpt lat="44.80236" lon="1.5643">
        <ele>115</ele>
        <time>2013-09-27T13:21:27Z</time>
      </trkpt>
      <trkpt lat="44.8025" lon="1.5643">
        <ele>115</ele>
        <time>2013-09-27T13:21:28Z</time>
      </trkpt>
      <trkpt lat="44.80262" lon="1.56434">
        <ele>115</ele>
        <time>2013-09-27T13:21:29Z</time>
      </trkpt>
      <trkpt lat="44.80276" lon="1.56438">
        <ele>115</ele>
        <time>2013-09-27T13:21:30Z</time>
      </trkpt>
      <trkpt lat="44.80291" lon="1.56442">
        <ele>115</ele>
        <time>2013-09-27T13:21:31Z</time>
      </trkpt>
      <trkpt lat="44.80302" lon="1.56446">
        <ele>115</ele>
        <time>2013-09-27T13:21:32Z</time>
      </trkpt>
      <trkpt lat="44.80312" lon="1.56457">
        <ele>122</ele>
        <time>2013-09-27T13:21:33Z</time>
      </trkpt>
      <trkpt lat="44.80327" lon="1.56473">
        <ele>122</ele>
        <time>2013-09-27T13:21:34Z</time>
      </trkpt>
      <trkpt lat="44.80339" lon="1.56487">
        <ele>122</ele>
        <time>2013-09-27T13:21:35Z</time>
      </trkpt>
      <trkpt lat="44.80349" lon="1.56501">
        <ele>122</ele>
        <time>2013-09-27T13:21:36Z</time>
      </trkpt>
      <trkpt lat="44.8036" lon="1.56514">
        <ele>122</ele>
        <time>2013-09-27T13:21:37Z</time>
      </trkpt>
      <trkpt lat="44.8037" lon="1.56525">
        <ele>122</ele>
        <time>2013-09-27T13:21:38Z</time>
      </trkpt>
      <trkpt lat="44.80379" lon="1.56538">
        <ele>122</ele>
        <time>2013-09-27T13:21:39Z</time>
      </trkpt>
      <trkpt lat="44.80388" lon="1.56549">
        <ele>122</ele>
        <time>2013-09-27T13:21:40Z</time>
      </trkpt>
      <trkpt lat="44.80399" lon="1.56559">
        <ele>122</ele>
        <time>2013-09-27T13:21:41Z</time>
      </trkpt>
      <trkpt lat="44.80407" lon="1.5657">
        <ele>128</ele>
        <time>2013-09-27T13:21:42Z</time>
      </trkpt>
      <trkpt lat="44.80413" lon="1.56583">
        <ele>128</ele>
        <time>2013-09-27T13:21:43Z</time>
      </trkpt>
      <trkpt lat="44.80422" lon="1.56595">
        <ele>128</ele>
        <time>2013-09-27T13:21:44Z</time>
      </trkpt>
      <trkpt lat="44.80427" lon="1.5661">
        <ele>133</ele>
        <time>2013-09-27T13:21:45Z</time>
      </trkpt>
      <trkpt lat="44.80432" lon="1.56626">
        <ele>133</ele>
        <time>2013-09-27T13:21:46Z</time>
      </trkpt>
      <trkpt lat="44.80435" lon="1.56641">
        <ele>133</ele>
        <time>2013-09-27T13:21:47Z</time>
      </trkpt>
      <trkpt lat="44.80436" lon="1.56662">
        <ele>133</ele>
        <time>2013-09-27T13:21:48Z</time>
      </trkpt>
      <trkpt lat="44.80441" lon="1.56678">
        <ele>133</ele>
        <time>2013-09-27T13:21:49Z</time>
      </trkpt>
      <trkpt lat="44.80447" lon="1.56692">
        <ele>133</ele>
        <time>2013-09-27T13:21:50Z</time>
      </trkpt>
      <trkpt lat="44.80449" lon="1.56708">
        <ele>133</ele>
        <time>2013-09-27T13:21:51Z</time>
      </trkpt>
      <trkpt lat="44.8045" lon="1.56728">
        <ele>133</ele>
        <time>2013-09-27T13:21:52Z</time>
      </trkpt>
      <trkpt lat="44.80446" lon="1.56753">
        <ele>133</ele>
        <time>2013-09-27T13:21:53Z</time>
      </trkpt>
      <trkpt lat="44.80442" lon="1.5678">
        <ele>133</ele>
        <time>2013-09-27T13:21:54Z</time>
      </trkpt>
      <trkpt lat="44.80426" lon="1.56869">
        <ele>133</ele>
        <time>2013-09-27T13:21:57Z</time>
      </trkpt>
      <trkpt lat="44.80414" lon="1.5691">
        <ele>144</ele>
        <time>2013-09-27T13:21:58Z</time>
      </trkpt>
      <trkpt lat="44.80408" lon="1.56935">
        <ele>144</ele>
        <time>2013-09-27T13:21:59Z</time>
      </trkpt>
      <trkpt lat="44.80406" lon="1.56959">
        <ele>144</ele>
        <time>2013-09-27T13:22:00Z</time>
      </trkpt>
      <trkpt lat="44.80404" lon="1.56982">
        <ele>144</ele>
        <time>2013-09-27T13:22:01Z</time>
      </trkpt>
      <trkpt lat="44.80402" lon="1.57005">
        <ele>144</ele>
        <time>2013-09-27T13:22:02Z</time>
      </trkpt>
      <trkpt lat="44.80397" lon="1.57026">
        <ele>144</ele>
        <time>2013-09-27T13:22:03Z</time>
      </trkpt>
      <trkpt lat="44.80393" lon="1.57045">
        <ele>144</ele>
        <time>2013-09-27T13:22:04Z</time>
      </trkpt>
      <trkpt lat="44.8039" lon="1.57065">
        <ele>144</ele>
        <time>2013-09-27T13:22:05Z</time>
      </trkpt>
      <trkpt lat="44.80385" lon="1.57084">
        <ele>138</ele>
        <time>2013-09-27T13:22:06Z</time>
      </trkpt>
      <trkpt lat="44.8038" lon="1.57103">
        <ele>138</ele>
        <time>2013-09-27T13:22:07Z</time>
      </trkpt>
      <trkpt lat="44.80375" lon="1.57121">
        <ele>138</ele>
        <time>2013-09-27T13:22:08Z</time>
      </trkpt>
      <trkpt lat="44.80368" lon="1.57136">
        <ele>138</ele>
        <time>2013-09-27T13:22:09Z</time>
      </trkpt>
      <trkpt lat="44.80358" lon="1.5715">
        <ele>133</ele>
        <time>2013-09-27T13:22:10Z</time>
      </trkpt>
      <trkpt lat="44.80348" lon="1.57161">
        <ele>133</ele>
        <time>2013-09-27T13:22:11Z</time>
      </trkpt>
      <trkpt lat="44.80338" lon="1.57172">
        <ele>133</ele>
        <time>2013-09-27T13:22:12Z</time>
      </trkpt>
      <trkpt lat="44.80326" lon="1.5718">
        <ele>133</ele>
        <time>2013-09-27T13:22:13Z</time>
      </trkpt>
      <trkpt lat="44.80315" lon="1.57187">
        <ele>127</ele>
        <time>2013-09-27T13:22:14Z</time>
      </trkpt>
      <trkpt lat="44.80304" lon="1.57192">
        <ele>127</ele>
        <time>2013-09-27T13:22:15Z</time>
      </trkpt>
      <trkpt lat="44.80291" lon="1.57195">
        <ele>127</ele>
        <time>2013-09-27T13:22:16Z</time>
      </trkpt>
      <trkpt lat="44.80277" lon="1.57197">
        <ele>121</ele>
        <time>2013-09-27T13:22:17Z</time>
      </trkpt>
      <trkpt lat="44.80259" lon="1.57195">
        <ele>121</ele>
        <time>2013-09-27T13:22:18Z</time>
      </trkpt>
      <trkpt lat="44.80241" lon="1.57191">
        <ele>121</ele>
        <time>2013-09-27T13:22:19Z</time>
      </trkpt>
      <trkpt lat="44.80223" lon="1.57188">
        <ele>121</ele>
        <time>2013-09-27T13:22:20Z</time>
      </trkpt>
      <trkpt lat="44.80205" lon="1.57183">
        <ele>121</ele>
        <time>2013-09-27T13:22:21Z</time>
      </trkpt>
      <trkpt lat="44.8019" lon="1.57178">
        <ele>127</ele>
        <time>2013-09-27T13:22:22Z</time>
      </trkpt>
      <trkpt lat="44.80175" lon="1.57172">
        <ele>127</ele>
        <time>2013-09-27T13:22:23Z</time>
      </trkpt>
      <trkpt lat="44.80163" lon="1.57172">
        <ele>127</ele>
        <time>2013-09-27T13:22:24Z</time>
      </trkpt>
      <trkpt lat="44.80159" lon="1.57195">
        <ele>127</ele>
        <time>2013-09-27T13:22:26Z</time>
      </trkpt>
      <trkpt lat="44.80158" lon="1.57209">
        <ele>127</ele>
        <time>2013-09-27T13:22:27Z</time>
      </trkpt>
      <trkpt lat="44.80151" lon="1.5722">
        <ele>127</ele>
        <time>2013-09-27T13:22:28Z</time>
      </trkpt>
      <trkpt lat="44.80148" lon="1.57232">
        <ele>127</ele>
        <time>2013-09-27T13:22:29Z</time>
      </trkpt>
      <trkpt lat="44.80148" lon="1.57247">
        <ele>127</ele>
        <time>2013-09-27T13:22:30Z</time>
      </trkpt>
      <trkpt lat="44.80147" lon="1.57263">
        <ele>127</ele>
        <time>2013-09-27T13:22:31Z</time>
      </trkpt>
      <trkpt lat="44.80158" lon="1.57279">
        <ele>133</ele>
        <time>2013-09-27T13:22:32Z</time>
      </trkpt>
      <trkpt lat="44.80158" lon="1.57292">
        <ele>133</ele>
        <time>2013-09-27T13:22:33Z</time>
      </trkpt>
      <trkpt lat="44.80156" lon="1.57305">
        <ele>133</ele>
        <time>2013-09-27T13:22:34Z</time>
      </trkpt>
      <trkpt lat="44.80163" lon="1.57324">
        <ele>133</ele>
        <time>2013-09-27T13:22:35Z</time>
      </trkpt>
      <trkpt lat="44.8017" lon="1.57348">
        <ele>133</ele>
        <time>2013-09-27T13:22:36Z</time>
      </trkpt>
      <trkpt lat="44.80175" lon="1.57365">
        <ele>133</ele>
        <time>2013-09-27T13:22:37Z</time>
      </trkpt>
      <trkpt lat="44.80179" lon="1.57385">
        <ele>133</ele>
        <time>2013-09-27T13:22:38Z</time>
      </trkpt>
      <trkpt lat="44.80184" lon="1.57405">
        <ele>133</ele>
        <time>2013-09-27T13:22:39Z</time>
      </trkpt>
      <trkpt lat="44.80188" lon="1.57423">
        <ele>133</ele>
        <time>2013-09-27T13:22:40Z</time>
      </trkpt>
      <trkpt lat="44.80189" lon="1.5744">
        <ele>140</ele>
        <time>2013-09-27T13:22:41Z</time>
      </trkpt>
      <trkpt lat="44.80191" lon="1.57458">
        <ele>140</ele>
        <time>2013-09-27T13:22:42Z</time>
      </trkpt>
      <trkpt lat="44.80195" lon="1.57497">
        <ele>146</ele>
        <time>2013-09-27T13:22:44Z</time>
      </trkpt>
      <trkpt lat="44.80193" lon="1.57518">
        <ele>146</ele>
        <time>2013-09-27T13:22:45Z</time>
      </trkpt>
      <trkpt lat="44.8019" lon="1.57538">
        <ele>146</ele>
        <time>2013-09-27T13:22:46Z</time>
      </trkpt>
      <trkpt lat="44.80186" lon="1.57563">
        <ele>146</ele>
        <time>2013-09-27T13:22:47Z</time>
      </trkpt>
      <trkpt lat="44.8018" lon="1.57583">
        <ele>146</ele>
        <time>2013-09-27T13:22:48Z</time>
      </trkpt>
      <trkpt lat="44.8017" lon="1.57601">
        <ele>152</ele>
        <time>2013-09-27T13:22:49Z</time>
      </trkpt>
      <trkpt lat="44.80159" lon="1.57619">
        <ele>152</ele>
        <time>2013-09-27T13:22:50Z</time>
      </trkpt>
      <trkpt lat="44.80147" lon="1.57636">
        <ele>152</ele>
        <time>2013-09-27T13:22:51Z</time>
      </trkpt>
      <trkpt lat="44.80138" lon="1.57654">
        <ele>152</ele>
        <time>2013-09-27T13:22:52Z</time>
      </trkpt>
      <trkpt lat="44.80129" lon="1.5767">
        <ele>152</ele>
        <time>2013-09-27T13:22:53Z</time>
      </trkpt>
      <trkpt lat="44.80122" lon="1.57685">
        <ele>152</ele>
        <time>2013-09-27T13:22:54Z</time>
      </trkpt>
      <trkpt lat="44.80115" lon="1.577">
        <ele>152</ele>
        <time>2013-09-27T13:22:55Z</time>
      </trkpt>
      <trkpt lat="44.80106" lon="1.57715">
        <ele>152</ele>
        <time>2013-09-27T13:22:56Z</time>
      </trkpt>
      <trkpt lat="44.80101" lon="1.5773">
        <ele>152</ele>
        <time>2013-09-27T13:22:57Z</time>
      </trkpt>
      <trkpt lat="44.80076" lon="1.57778">
        <ele>152</ele>
        <time>2013-09-27T13:23:00Z</time>
      </trkpt>
      <trkpt lat="44.80074" lon="1.57798">
        <ele>152</ele>
        <time>2013-09-27T13:23:01Z</time>
      </trkpt>
      <trkpt lat="44.80072" lon="1.57817">
        <ele>152</ele>
        <time>2013-09-27T13:23:02Z</time>
      </trkpt>
      <trkpt lat="44.80069" lon="1.57838">
        <ele>152</ele>
        <time>2013-09-27T13:23:03Z</time>
      </trkpt>
      <trkpt lat="44.80069" lon="1.57859">
        <ele>152</ele>
        <time>2013-09-27T13:23:04Z</time>
      </trkpt>
      <trkpt lat="44.80066" lon="1.57878">
        <ele>152</ele>
        <time>2013-09-27T13:23:05Z</time>
      </trkpt>
      <trkpt lat="44.80063" lon="1.57894">
        <ele>152</ele>
        <time>2013-09-27T13:23:06Z</time>
      </trkpt>
      <trkpt lat="44.80045" lon="1.5791">
        <ele>146</ele>
        <time>2013-09-27T13:23:07Z</time>
      </trkpt>
      <trkpt lat="44.80039" lon="1.57927">
        <ele>146</ele>
        <time>2013-09-27T13:23:08Z</time>
      </trkpt>
      <trkpt lat="44.80034" lon="1.57943">
        <ele>146</ele>
        <time>2013-09-27T13:23:09Z</time>
      </trkpt>
      <trkpt lat="44.80029" lon="1.57959">
        <ele>146</ele>
        <time>2013-09-27T13:23:10Z</time>
      </trkpt>
      <trkpt lat="44.80023" lon="1.57976">
        <ele>146</ele>
        <time>2013-09-27T13:23:11Z</time>
      </trkpt>
      <trkpt lat="44.80022" lon="1.57992">
        <ele>146</ele>
        <time>2013-09-27T13:23:12Z</time>
      </trkpt>
      <trkpt lat="44.80016" lon="1.58007">
        <ele>146</ele>
        <time>2013-09-27T13:23:13Z</time>
      </trkpt>
      <trkpt lat="44.8001" lon="1.58024">
        <ele>146</ele>
        <time>2013-09-27T13:23:14Z</time>
      </trkpt>
      <trkpt lat="44.80003" lon="1.58042">
        <ele>146</ele>
        <time>2013-09-27T13:23:15Z</time>
      </trkpt>
      <trkpt lat="44.79997" lon="1.58063">
        <ele>146</ele>
        <time>2013-09-27T13:23:16Z</time>
      </trkpt>
      <trkpt lat="44.79991" lon="1.58083">
        <ele>146</ele>
        <time>2013-09-27T13:23:17Z</time>
      </trkpt>
      <trkpt lat="44.79986" lon="1.58104">
        <ele>146</ele>
        <time>2013-09-27T13:23:18Z</time>
      </trkpt>
      <trkpt lat="44.79979" lon="1.58125">
        <ele>139</ele>
        <time>2013-09-27T13:23:19Z</time>
      </trkpt>
      <trkpt lat="44.79978" lon="1.58147">
        <ele>139</ele>
        <time>2013-09-27T13:23:20Z</time>
      </trkpt>
      <trkpt lat="44.79973" lon="1.58167">
        <ele>139</ele>
        <time>2013-09-27T13:23:21Z</time>
      </trkpt>
      <trkpt lat="44.79968" lon="1.58186">
        <ele>139</ele>
        <time>2013-09-27T13:23:22Z</time>
      </trkpt>
      <trkpt lat="44.79962" lon="1.58205">
        <ele>139</ele>
        <time>2013-09-27T13:23:23Z</time>
      </trkpt>
      <trkpt lat="44.79955" lon="1.58225">
        <ele>139</ele>
        <time>2013-09-27T13:23:24Z</time>
      </trkpt>
      <trkpt lat="44.7995" lon="1.58246">
        <ele>139</ele>
        <time>2013-09-27T13:23:25Z</time>
      </trkpt>
      <trkpt lat="44.79944" lon="1.58267">
        <ele>139</ele>
        <time>2013-09-27T13:23:26Z</time>
      </trkpt>
      <trkpt lat="44.79938" lon="1.58289">
        <ele>139</ele>
        <time>2013-09-27T13:23:27Z</time>
      </trkpt>
      <trkpt lat="44.79934" lon="1.5831">
        <ele>139</ele>
        <time>2013-09-27T13:23:28Z</time>
      </trkpt>
      <trkpt lat="44.79929" lon="1.58331">
        <ele>139</ele>
        <time>2013-09-27T13:23:29Z</time>
      </trkpt>
      <trkpt lat="44.79924" lon="1.58351">
        <ele>139</ele>
        <time>2013-09-27T13:23:30Z</time>
      </trkpt>
      <trkpt lat="44.79918" lon="1.58372">
        <ele>139</ele>
        <time>2013-09-27T13:23:31Z</time>
      </trkpt>
      <trkpt lat="44.79912" lon="1.58393">
        <ele>139</ele>
        <time>2013-09-27T13:23:32Z</time>
      </trkpt>
      <trkpt lat="44.79907" lon="1.58413">
        <ele>145</ele>
        <time>2013-09-27T13:23:33Z</time>
      </trkpt>
      <trkpt lat="44.799" lon="1.58432">
        <ele>145</ele>
        <time>2013-09-27T13:23:34Z</time>
      </trkpt>
      <trkpt lat="44.79893" lon="1.58451">
        <ele>145</ele>
        <time>2013-09-27T13:23:35Z</time>
      </trkpt>
      <trkpt lat="44.79886" lon="1.58466">
        <ele>145</ele>
        <time>2013-09-27T13:23:36Z</time>
      </trkpt>
      <trkpt lat="44.79881" lon="1.5848">
        <ele>145</ele>
        <time>2013-09-27T13:23:37Z</time>
      </trkpt>
      <trkpt lat="44.7987" lon="1.58499">
        <ele>145</ele>
        <time>2013-09-27T13:23:39Z</time>
      </trkpt>
      <trkpt lat="44.79866" lon="1.58513">
        <ele>151</ele>
        <time>2013-09-27T13:23:41Z</time>
      </trkpt>
      <trkpt lat="44.79864" lon="1.5853">
        <ele>151</ele>
        <time>2013-09-27T13:23:43Z</time>
      </trkpt>
      <trkpt lat="44.79851" lon="1.58599">
        <ele>156</ele>
        <time>2013-09-27T13:23:53Z</time>
      </trkpt>
      <trkpt lat="44.799" lon="1.58584">
        <ele>156</ele>
        <time>2013-09-27T13:23:59Z</time>
      </trkpt>
      <trkpt lat="44.79923" lon="1.58568">
        <ele>156</ele>
        <time>2013-09-27T13:24:00Z</time>
      </trkpt>
      <trkpt lat="44.79949" lon="1.58561">
        <ele>156</ele>
        <time>2013-09-27T13:24:01Z</time>
      </trkpt>
      <trkpt lat="44.80038" lon="1.58541">
        <ele>156</ele>
        <time>2013-09-27T13:24:05Z</time>
      </trkpt>
      <trkpt lat="44.80061" lon="1.58545">
        <ele>156</ele>
        <time>2013-09-27T13:24:06Z</time>
      </trkpt>
      <trkpt lat="44.8008" lon="1.58549">
        <ele>156</ele>
        <time>2013-09-27T13:24:07Z</time>
      </trkpt>
      <trkpt lat="44.801" lon="1.58555">
        <ele>156</ele>
        <time>2013-09-27T13:24:08Z</time>
      </trkpt>
      <trkpt lat="44.80122" lon="1.58563">
        <ele>156</ele>
        <time>2013-09-27T13:24:09Z</time>
      </trkpt>
      <trkpt lat="44.80142" lon="1.58567">
        <ele>156</ele>
        <time>2013-09-27T13:24:10Z</time>
      </trkpt>
      <trkpt lat="44.80159" lon="1.58572">
        <ele>156</ele>
        <time>2013-09-27T13:24:11Z</time>
      </trkpt>
      <trkpt lat="44.80177" lon="1.58574">
        <ele>156</ele>
        <time>2013-09-27T13:24:12Z</time>
      </trkpt>
      <trkpt lat="44.80198" lon="1.58581">
        <ele>156</ele>
        <time>2013-09-27T13:24:13Z</time>
      </trkpt>
      <trkpt lat="44.80218" lon="1.58587">
        <ele>156</ele>
        <time>2013-09-27T13:24:14Z</time>
      </trkpt>
      <trkpt lat="44.80244" lon="1.58595">
        <ele>156</ele>
        <time>2013-09-27T13:24:15Z</time>
      </trkpt>
      <trkpt lat="44.80265" lon="1.58599">
        <ele>156</ele>
        <time>2013-09-27T13:24:16Z</time>
      </trkpt>
      <trkpt lat="44.80288" lon="1.58611">
        <ele>162</ele>
        <time>2013-09-27T13:24:18Z</time>
      </trkpt>
      <trkpt lat="44.80296" lon="1.58622">
        <ele>162</ele>
        <time>2013-09-27T13:24:19Z</time>
      </trkpt>
      <trkpt lat="44.80299" lon="1.58667">
        <ele>162</ele>
        <time>2013-09-27T13:24:22Z</time>
      </trkpt>
      <trkpt lat="44.80293" lon="1.58686">
        <ele>162</ele>
        <time>2013-09-27T13:24:23Z</time>
      </trkpt>
      <trkpt lat="44.8027" lon="1.58708">
        <ele>162</ele>
        <time>2013-09-27T13:24:25Z</time>
      </trkpt>
      <trkpt lat="44.80257" lon="1.58711">
        <ele>156</ele>
        <time>2013-09-27T13:24:26Z</time>
      </trkpt>
      <trkpt lat="44.80234" lon="1.58701">
        <ele>156</ele>
        <time>2013-09-27T13:24:27Z</time>
      </trkpt>
      <trkpt lat="44.80223" lon="1.58697">
        <ele>156</ele>
        <time>2013-09-27T13:24:28Z</time>
      </trkpt>
      <trkpt lat="44.80201" lon="1.58685">
        <ele>156</ele>
        <time>2013-09-27T13:24:29Z</time>
      </trkpt>
      <trkpt lat="44.80191" lon="1.58683">
        <ele>156</ele>
        <time>2013-09-27T13:24:30Z</time>
      </trkpt>
      <trkpt lat="44.80166" lon="1.58668">
        <ele>156</ele>
        <time>2013-09-27T13:24:31Z</time>
      </trkpt>
      <trkpt lat="44.80152" lon="1.58663">
        <ele>156</ele>
        <time>2013-09-27T13:24:32Z</time>
      </trkpt>
      <trkpt lat="44.80138" lon="1.58678">
        <ele>156</ele>
        <time>2013-09-27T13:24:34Z</time>
      </trkpt>
      <trkpt lat="44.80128" lon="1.58697">
        <ele>156</ele>
        <time>2013-09-27T13:24:35Z</time>
      </trkpt>
      <trkpt lat="44.80115" lon="1.58714">
        <ele>156</ele>
        <time>2013-09-27T13:24:36Z</time>
      </trkpt>
      <trkpt lat="44.8009" lon="1.58766">
        <ele>156</ele>
        <time>2013-09-27T13:24:39Z</time>
      </trkpt>
      <trkpt lat="44.80081" lon="1.58782">
        <ele>156</ele>
        <time>2013-09-27T13:24:40Z</time>
      </trkpt>
      <trkpt lat="44.80074" lon="1.58798">
        <ele>156</ele>
        <time>2013-09-27T13:24:41Z</time>
      </trkpt>
      <trkpt lat="44.80066" lon="1.58814">
        <ele>156</ele>
        <time>2013-09-27T13:24:42Z</time>
      </trkpt>
      <trkpt lat="44.80062" lon="1.58831">
        <ele>156</ele>
        <time>2013-09-27T13:24:43Z</time>
      </trkpt>
      <trkpt lat="44.80056" lon="1.58849">
        <ele>156</ele>
        <time>2013-09-27T13:24:44Z</time>
      </trkpt>
      <trkpt lat="44.80042" lon="1.58866">
        <ele>156</ele>
        <time>2013-09-27T13:24:45Z</time>
      </trkpt>
      <trkpt lat="44.80034" lon="1.58882">
        <ele>156</ele>
        <time>2013-09-27T13:24:46Z</time>
      </trkpt>
      <trkpt lat="44.80028" lon="1.58897">
        <ele>156</ele>
        <time>2013-09-27T13:24:47Z</time>
      </trkpt>
      <trkpt lat="44.80025" lon="1.58909">
        <ele>156</ele>
        <time>2013-09-27T13:24:48Z</time>
      </trkpt>
      <trkpt lat="44.80022" lon="1.58924">
        <ele>156</ele>
        <time>2013-09-27T13:24:49Z</time>
      </trkpt>
      <trkpt lat="44.80027" lon="1.58945">
        <ele>156</ele>
        <time>2013-09-27T13:24:51Z</time>
      </trkpt>
      <trkpt lat="44.80033" lon="1.58963">
        <ele>156</ele>
        <time>2013-09-27T13:24:53Z</time>
      </trkpt>
      <trkpt lat="44.80041" lon="1.58974">
        <ele>156</ele>
        <time>2013-09-27T13:24:54Z</time>
      </trkpt>
      <trkpt lat="44.80064" lon="1.59005">
        <ele>156</ele>
        <time>2013-09-27T13:24:58Z</time>
      </trkpt>
      <trkpt lat="44.80081" lon="1.59014">
        <ele>156</ele>
        <time>2013-09-27T13:24:59Z</time>
      </trkpt>
      <trkpt lat="44.80101" lon="1.59019">
        <ele>156</ele>
        <time>2013-09-27T13:25:00Z</time>
      </trkpt>
      <trkpt lat="44.80162" lon="1.59072">
        <ele>163</ele>
        <time>2013-09-27T13:25:04Z</time>
      </trkpt>
      <trkpt lat="44.80207" lon="1.59082">
        <ele>175</ele>
        <time>2013-09-27T13:25:05Z</time>
      </trkpt>
      <trkpt lat="44.80212" lon="1.59103">
        <ele>170</ele>
        <time>2013-09-27T13:25:07Z</time>
      </trkpt>
      <trkpt lat="44.80205" lon="1.59155">
        <ele>170</ele>
        <time>2013-09-27T13:25:13Z</time>
      </trkpt>
      <trkpt lat="44.80195" lon="1.59155">
        <ele>170</ele>
        <time>2013-09-27T13:25:14Z</time>
      </trkpt>
      <trkpt lat="44.80185" lon="1.59155">
        <ele>170</ele>
        <time>2013-09-27T13:25:15Z</time>
      </trkpt>
      <trkpt lat="44.80172" lon="1.59153">
        <ele>170</ele>
        <time>2013-09-27T13:25:16Z</time>
      </trkpt>
      <trkpt lat="44.80152" lon="1.59142">
        <ele>170</ele>
        <time>2013-09-27T13:25:17Z</time>
      </trkpt>
      <trkpt lat="44.80126" lon="1.59128">
        <ele>170</ele>
        <time>2013-09-27T13:25:18Z</time>
      </trkpt>
      <trkpt lat="44.80102" lon="1.59117">
        <ele>170</ele>
        <time>2013-09-27T13:25:19Z</time>
      </trkpt>
      <trkpt lat="44.80079" lon="1.59109">
        <ele>170</ele>
        <time>2013-09-27T13:25:20Z</time>
      </trkpt>
      <trkpt lat="44.80061" lon="1.59107">
        <ele>175</ele>
        <time>2013-09-27T13:25:21Z</time>
      </trkpt>
      <trkpt lat="44.80044" lon="1.59107">
        <ele>175</ele>
        <time>2013-09-27T13:25:22Z</time>
      </trkpt>
      <trkpt lat="44.80029" lon="1.59111">
        <ele>175</ele>
        <time>2013-09-27T13:25:23Z</time>
      </trkpt>
      <trkpt lat="44.80015" lon="1.59116">
        <ele>175</ele>
        <time>2013-09-27T13:25:24Z</time>
      </trkpt>
      <trkpt lat="44.80005" lon="1.59127">
        <ele>175</ele>
        <time>2013-09-27T13:25:25Z</time>
      </trkpt>
      <trkpt lat="44.80003" lon="1.59161">
        <ele>175</ele>
        <time>2013-09-27T13:25:27Z</time>
      </trkpt>
      <trkpt lat="44.79994" lon="1.59176">
        <ele>175</ele>
        <time>2013-09-27T13:25:28Z</time>
      </trkpt>
      <trkpt lat="44.79984" lon="1.59191">
        <ele>175</ele>
        <time>2013-09-27T13:25:29Z</time>
      </trkpt>
      <trkpt lat="44.79978" lon="1.59206">
        <ele>175</ele>
        <time>2013-09-27T13:25:30Z</time>
      </trkpt>
      <trkpt lat="44.7997" lon="1.59222">
        <ele>175</ele>
        <time>2013-09-27T13:25:31Z</time>
      </trkpt>
      <trkpt lat="44.79961" lon="1.59238">
        <ele>175</ele>
        <time>2013-09-27T13:25:32Z</time>
      </trkpt>
      <trkpt lat="44.79954" lon="1.59253">
        <ele>175</ele>
        <time>2013-09-27T13:25:33Z</time>
      </trkpt>
      <trkpt lat="44.79951" lon="1.5927">
        <ele>175</ele>
        <time>2013-09-27T13:25:34Z</time>
      </trkpt>
      <trkpt lat="44.79947" lon="1.59288">
        <ele>175</ele>
        <time>2013-09-27T13:25:35Z</time>
      </trkpt>
      <trkpt lat="44.79943" lon="1.59307">
        <ele>175</ele>
        <time>2013-09-27T13:25:36Z</time>
      </trkpt>
      <trkpt lat="44.79959" lon="1.59326">
        <ele>181</ele>
        <time>2013-09-27T13:25:37Z</time>
      </trkpt>
      <trkpt lat="44.79961" lon="1.59344">
        <ele>181</ele>
        <time>2013-09-27T13:25:38Z</time>
      </trkpt>
      <trkpt lat="44.79961" lon="1.5936">
        <ele>181</ele>
        <time>2013-09-27T13:25:39Z</time>
      </trkpt>
      <trkpt lat="44.79968" lon="1.59376">
        <ele>187</ele>
        <time>2013-09-27T13:25:40Z</time>
      </trkpt>
      <trkpt lat="44.7997" lon="1.59393">
        <ele>187</ele>
        <time>2013-09-27T13:25:41Z</time>
      </trkpt>
      <trkpt lat="44.79971" lon="1.59408">
        <ele>187</ele>
        <time>2013-09-27T13:25:42Z</time>
      </trkpt>
      <trkpt lat="44.79971" lon="1.59424">
        <ele>187</ele>
        <time>2013-09-27T13:25:43Z</time>
      </trkpt>
      <trkpt lat="44.79971" lon="1.59439">
        <ele>187</ele>
        <time>2013-09-27T13:25:44Z</time>
      </trkpt>
      <trkpt lat="44.79971" lon="1.59455">
        <ele>187</ele>
        <time>2013-09-27T13:25:45Z</time>
      </trkpt>
      <trkpt lat="44.79972" lon="1.5947">
        <ele>187</ele>
        <time>2013-09-27T13:25:46Z</time>
      </trkpt>
      <trkpt lat="44.79971" lon="1.59484">
        <ele>187</ele>
        <time>2013-09-27T13:25:47Z</time>
      </trkpt>
      <trkpt lat="44.79969" lon="1.59498">
        <ele>187</ele>
        <time>2013-09-27T13:25:48Z</time>
      </trkpt>
      <trkpt lat="44.79959" lon="1.59509">
        <ele>187</ele>
        <time>2013-09-27T13:25:49Z</time>
      </trkpt>
      <trkpt lat="44.79955" lon="1.59521">
        <ele>187</ele>
        <time>2013-09-27T13:25:50Z</time>
      </trkpt>
      <trkpt lat="44.79943" lon="1.59534">
        <ele>187</ele>
        <time>2013-09-27T13:25:52Z</time>
      </trkpt>
      <trkpt lat="44.79918" lon="1.59524">
        <ele>187</ele>
        <time>2013-09-27T13:25:53Z</time>
      </trkpt>
      <trkpt lat="44.79909" lon="1.59508">
        <ele>187</ele>
        <time>2013-09-27T13:25:55Z</time>
      </trkpt>
      <trkpt lat="44.79891" lon="1.5946">
        <ele>187</ele>
        <time>2013-09-27T13:26:00Z</time>
      </trkpt>
      <trkpt lat="44.79888" lon="1.59442">
        <ele>187</ele>
        <time>2013-09-27T13:26:01Z</time>
      </trkpt>
      <trkpt lat="44.79888" lon="1.59389">
        <ele>187</ele>
        <time>2013-09-27T13:26:03Z</time>
      </trkpt>
      <trkpt lat="44.79889" lon="1.59365">
        <ele>187</ele>
        <time>2013-09-27T13:26:04Z</time>
      </trkpt>
      <trkpt lat="44.79885" lon="1.59345">
        <ele>187</ele>
        <time>2013-09-27T13:26:05Z</time>
      </trkpt>
      <trkpt lat="44.79885" lon="1.59312">
        <ele>187</ele>
        <time>2013-09-27T13:26:06Z</time>
      </trkpt>
      <trkpt lat="44.79881" lon="1.5929">
        <ele>187</ele>
        <time>2013-09-27T13:26:07Z</time>
      </trkpt>
      <trkpt lat="44.79878" lon="1.59272">
        <ele>187</ele>
        <time>2013-09-27T13:26:08Z</time>
      </trkpt>
      <trkpt lat="44.7983" lon="1.59191">
        <ele>193</ele>
        <time>2013-09-27T13:26:15Z</time>
      </trkpt>
      <trkpt lat="44.79818" lon="1.59193">
        <ele>193</ele>
        <time>2013-09-27T13:26:16Z</time>
      </trkpt>
      <trkpt lat="44.79801" lon="1.59199">
        <ele>193</ele>
        <time>2013-09-27T13:26:18Z</time>
      </trkpt>
      <trkpt lat="44.79791" lon="1.59202">
        <ele>193</ele>
        <time>2013-09-27T13:26:19Z</time>
      </trkpt>
      <trkpt lat="44.79778" lon="1.59209">
        <ele>200</ele>
        <time>2013-09-27T13:26:20Z</time>
      </trkpt>
      <trkpt lat="44.79753" lon="1.59191">
        <ele>200</ele>
        <time>2013-09-27T13:26:22Z</time>
      </trkpt>
      <trkpt lat="44.79737" lon="1.59202">
        <ele>200</ele>
        <time>2013-09-27T13:26:23Z</time>
      </trkpt>
      <trkpt lat="44.79722" lon="1.59204">
        <ele>200</ele>
        <time>2013-09-27T13:26:24Z</time>
      </trkpt>
      <trkpt lat="44.79707" lon="1.59206">
        <ele>200</ele>
        <time>2013-09-27T13:26:25Z</time>
      </trkpt>
      <trkpt lat="44.7969" lon="1.59212">
        <ele>200</ele>
        <time>2013-09-27T13:26:26Z</time>
      </trkpt>
      <trkpt lat="44.79675" lon="1.59213">
        <ele>200</ele>
        <time>2013-09-27T13:26:27Z</time>
      </trkpt>
      <trkpt lat="44.79611" lon="1.5926">
        <ele>208</ele>
        <time>2013-09-27T13:26:31Z</time>
      </trkpt>
      <trkpt lat="44.79597" lon="1.59267">
        <ele>208</ele>
        <time>2013-09-27T13:26:32Z</time>
      </trkpt>
      <trkpt lat="44.79571" lon="1.59408">
        <ele>208</ele>
        <time>2013-09-27T13:26:41Z</time>
      </trkpt>
      <trkpt lat="44.796" lon="1.59724">
        <ele>208</ele>
        <time>2013-09-27T13:26:52Z</time>
      </trkpt>
      <trkpt lat="44.79618" lon="1.59748">
        <ele>208</ele>
        <time>2013-09-27T13:26:53Z</time>
      </trkpt>
      <trkpt lat="44.79634" lon="1.598">
        <ele>208</ele>
        <time>2013-09-27T13:26:55Z</time>
      </trkpt>
      <trkpt lat="44.79641" lon="1.59823">
        <ele>208</ele>
        <time>2013-09-27T13:26:56Z</time>
      </trkpt>
      <trkpt lat="44.79644" lon="1.59844">
        <ele>208</ele>
        <time>2013-09-27T13:26:57Z</time>
      </trkpt>
      <trkpt lat="44.79648" lon="1.59866">
        <ele>208</ele>
        <time>2013-09-27T13:26:58Z</time>
      </trkpt>
      <trkpt lat="44.79647" lon="1.5989">
        <ele>208</ele>
        <time>2013-09-27T13:26:59Z</time>
      </trkpt>
      <trkpt lat="44.79674" lon="1.59914">
        <ele>215</ele>
        <time>2013-09-27T13:27:00Z</time>
      </trkpt>
      <trkpt lat="44.7968" lon="1.59937">
        <ele>215</ele>
        <time>2013-09-27T13:27:01Z</time>
      </trkpt>
      <trkpt lat="44.79673" lon="1.59959">
        <ele>215</ele>
        <time>2013-09-27T13:27:02Z</time>
      </trkpt>
      <trkpt lat="44.79666" lon="1.5998">
        <ele>215</ele>
        <time>2013-09-27T13:27:03Z</time>
      </trkpt>
      <trkpt lat="44.7966" lon="1.60001">
        <ele>215</ele>
        <time>2013-09-27T13:27:04Z</time>
      </trkpt>
      <trkpt lat="44.79656" lon="1.60023">
        <ele>209</ele>
        <time>2013-09-27T13:27:05Z</time>
      </trkpt>
      <trkpt lat="44.79647" lon="1.60081">
        <ele>209</ele>
        <time>2013-09-27T13:27:08Z</time>
      </trkpt>
      <trkpt lat="44.79644" lon="1.601">
        <ele>209</ele>
        <time>2013-09-27T13:27:09Z</time>
      </trkpt>
      <trkpt lat="44.79642" lon="1.60118">
        <ele>209</ele>
        <time>2013-09-27T13:27:10Z</time>
      </trkpt>
      <trkpt lat="44.7964" lon="1.60138">
        <ele>209</ele>
        <time>2013-09-27T13:27:11Z</time>
      </trkpt>
      <trkpt lat="44.7964" lon="1.60158">
        <ele>209</ele>
        <time>2013-09-27T13:27:12Z</time>
      </trkpt>
      <trkpt lat="44.79963" lon="1.60405">
        <ele>209</ele>
        <time>2013-09-27T13:27:45Z</time>
      </trkpt>
      <trkpt lat="44.79963" lon="1.60405">
        <ele>199</ele>
        <time>2013-09-27T13:27:45Z</time>
      </trkpt>
      <trkpt lat="44.80001" lon="1.6041">
        <ele>199</ele>
        <time>2013-09-27T13:27:46Z</time>
      </trkpt>
      <trkpt lat="44.80034" lon="1.60415">
        <ele>204</ele>
        <time>2013-09-27T13:27:47Z</time>
      </trkpt>
      <trkpt lat="44.80067" lon="1.60418">
        <ele>204</ele>
        <time>2013-09-27T13:27:48Z</time>
      </trkpt>
      <trkpt lat="44.80148" lon="1.60424">
        <ele>220</ele>
        <time>2013-09-27T13:27:50Z</time>
      </trkpt>
      <trkpt lat="44.80174" lon="1.60427">
        <ele>220</ele>
        <time>2013-09-27T13:27:51Z</time>
      </trkpt>
      <trkpt lat="44.80542" lon="1.60653">
        <ele>220</ele>
        <time>2013-09-27T13:28:16Z</time>
      </trkpt>
    </trkseg>
  </trk>
</gpx>